<?xml version="1.0" encoding="UTF-8" standalone="no" ?>
<gpx xmlns="http://www.topografix.com/GPX/1/1" xmlns:xsi="http://www.w3.org/2001/XMLSchema-instance" xsi:schemaLocation="http://www.topografix.com/GPX/1/1 http://www.topografix.com/GPX/1/1/gpx.xsd" version="1.1" creator="VisuGPX - https://www.visugpx.com">
  <metadata>
    <name>Col des Tentes - Cabane des Soldats</name>
  </metadata>
  <trk>
    <name><![CDATA[Col des Tentes - Cabane des Soldats_1]]></name>
    <extensions>
      <line xmlns="http://www.topografix.com/GPX/gpx_style/0/2">
        <color>0000FF</color>
        <width>4</width>
      </line>
    </extensions>
    <trkseg>
      <trkpt lat="42.71435" lon="-0.05149">
        <ele>2199</ele>
        <time>2013-06-07T04:31:11Z</time>
      </trkpt>
      <trkpt lat="42.7143" lon="-0.0515">
        <ele>2200</ele>
        <time>2013-06-07T04:31:21Z</time>
      </trkpt>
      <trkpt lat="42.71425" lon="-0.0515">
        <ele>2201</ele>
        <time>2013-06-07T04:31:29Z</time>
      </trkpt>
      <trkpt lat="42.71415" lon="-0.05151">
        <ele>2203</ele>
        <time>2013-06-07T04:31:39Z</time>
      </trkpt>
      <trkpt lat="42.71406" lon="-0.05153">
        <ele>2204</ele>
        <time>2013-06-07T04:31:50Z</time>
      </trkpt>
      <trkpt lat="42.71402" lon="-0.05153">
        <ele>2205</ele>
        <time>2013-06-07T04:31:59Z</time>
      </trkpt>
      <trkpt lat="42.71397" lon="-0.0515">
        <ele>2207</ele>
        <time>2013-06-07T04:32:08Z</time>
      </trkpt>
      <trkpt lat="42.71394" lon="-0.05149">
        <ele>2208</ele>
        <time>2013-06-07T04:32:16Z</time>
      </trkpt>
      <trkpt lat="42.71391" lon="-0.05149">
        <ele>2210</ele>
        <time>2013-06-07T04:32:24Z</time>
      </trkpt>
      <trkpt lat="42.71386" lon="-0.0515">
        <ele>2211</ele>
        <time>2013-06-07T04:32:30Z</time>
      </trkpt>
      <trkpt lat="42.71384" lon="-0.05153">
        <ele>2211</ele>
        <time>2013-06-07T04:32:37Z</time>
      </trkpt>
      <trkpt lat="42.71384" lon="-0.05153">
        <ele>2211</ele>
        <time>2013-06-07T04:32:52Z</time>
      </trkpt>
      <trkpt lat="42.71384" lon="-0.05153">
        <ele>2212</ele>
        <time>2013-06-07T04:33:06Z</time>
      </trkpt>
      <trkpt lat="42.71382" lon="-0.05152">
        <ele>2211</ele>
        <time>2013-06-07T04:33:17Z</time>
      </trkpt>
      <trkpt lat="42.71377" lon="-0.05152">
        <ele>2212</ele>
        <time>2013-06-07T04:33:24Z</time>
      </trkpt>
      <trkpt lat="42.71369" lon="-0.05152">
        <ele>2214</ele>
        <time>2013-06-07T04:33:33Z</time>
      </trkpt>
      <trkpt lat="42.71368" lon="-0.05152">
        <ele>2215</ele>
        <time>2013-06-07T04:33:35Z</time>
      </trkpt>
      <trkpt lat="42.7136" lon="-0.05154">
        <ele>2216</ele>
        <time>2013-06-07T04:33:44Z</time>
      </trkpt>
      <trkpt lat="42.71352" lon="-0.05155">
        <ele>2217</ele>
        <time>2013-06-07T04:33:52Z</time>
      </trkpt>
      <trkpt lat="42.71344" lon="-0.05158">
        <ele>2217</ele>
        <time>2013-06-07T04:34:00Z</time>
      </trkpt>
      <trkpt lat="42.71338" lon="-0.05164">
        <ele>2220</ele>
        <time>2013-06-07T04:34:08Z</time>
      </trkpt>
      <trkpt lat="42.71336" lon="-0.05166">
        <ele>2219</ele>
        <time>2013-06-07T04:34:20Z</time>
      </trkpt>
      <trkpt lat="42.71333" lon="-0.05169">
        <ele>2219</ele>
        <time>2013-06-07T04:34:27Z</time>
      </trkpt>
      <trkpt lat="42.71333" lon="-0.05169">
        <ele>2220</ele>
        <time>2013-06-07T04:34:28Z</time>
      </trkpt>
      <trkpt lat="42.71332" lon="-0.05172">
        <ele>2220</ele>
        <time>2013-06-07T04:34:36Z</time>
      </trkpt>
      <trkpt lat="42.71327" lon="-0.0518">
        <ele>2220</ele>
        <time>2013-06-07T04:34:43Z</time>
      </trkpt>
      <trkpt lat="42.71321" lon="-0.05192">
        <ele>2223</ele>
        <time>2013-06-07T04:34:53Z</time>
      </trkpt>
      <trkpt lat="42.71317" lon="-0.052">
        <ele>2223</ele>
        <time>2013-06-07T04:35:01Z</time>
      </trkpt>
      <trkpt lat="42.71311" lon="-0.05211">
        <ele>2225</ele>
        <time>2013-06-07T04:35:09Z</time>
      </trkpt>
      <trkpt lat="42.7131" lon="-0.05212">
        <ele>2224</ele>
        <time>2013-06-07T04:35:10Z</time>
      </trkpt>
      <trkpt lat="42.71308" lon="-0.05215">
        <ele>2224</ele>
        <time>2013-06-07T04:35:13Z</time>
      </trkpt>
      <trkpt lat="42.71308" lon="-0.05224">
        <ele>2224</ele>
        <time>2013-06-07T04:35:21Z</time>
      </trkpt>
      <trkpt lat="42.71307" lon="-0.05225">
        <ele>2224</ele>
        <time>2013-06-07T04:35:29Z</time>
      </trkpt>
      <trkpt lat="42.71308" lon="-0.05225">
        <ele>2225</ele>
        <time>2013-06-07T04:35:36Z</time>
      </trkpt>
      <trkpt lat="42.71308" lon="-0.05224">
        <ele>2225</ele>
        <time>2013-06-07T04:35:39Z</time>
      </trkpt>
      <trkpt lat="42.71307" lon="-0.05227">
        <ele>2226</ele>
        <time>2013-06-07T04:35:42Z</time>
      </trkpt>
      <trkpt lat="42.71303" lon="-0.05237">
        <ele>2226</ele>
        <time>2013-06-07T04:35:51Z</time>
      </trkpt>
      <trkpt lat="42.71302" lon="-0.05241">
        <ele>2226</ele>
        <time>2013-06-07T04:35:54Z</time>
      </trkpt>
      <trkpt lat="42.71299" lon="-0.05254">
        <ele>2227</ele>
        <time>2013-06-07T04:36:03Z</time>
      </trkpt>
      <trkpt lat="42.71297" lon="-0.05268">
        <ele>2227</ele>
        <time>2013-06-07T04:36:11Z</time>
      </trkpt>
      <trkpt lat="42.71296" lon="-0.05279">
        <ele>2227</ele>
        <time>2013-06-07T04:36:18Z</time>
      </trkpt>
      <trkpt lat="42.71296" lon="-0.05288">
        <ele>2228</ele>
        <time>2013-06-07T04:36:26Z</time>
      </trkpt>
      <trkpt lat="42.71296" lon="-0.05297">
        <ele>2228</ele>
        <time>2013-06-07T04:36:33Z</time>
      </trkpt>
      <trkpt lat="42.71295" lon="-0.05306">
        <ele>2229</ele>
        <time>2013-06-07T04:36:41Z</time>
      </trkpt>
      <trkpt lat="42.71293" lon="-0.05316">
        <ele>2230</ele>
        <time>2013-06-07T04:36:50Z</time>
      </trkpt>
      <trkpt lat="42.71292" lon="-0.05325">
        <ele>2230</ele>
        <time>2013-06-07T04:36:59Z</time>
      </trkpt>
      <trkpt lat="42.71291" lon="-0.05326">
        <ele>2229</ele>
        <time>2013-06-07T04:37:09Z</time>
      </trkpt>
      <trkpt lat="42.7129" lon="-0.05331">
        <ele>2229</ele>
        <time>2013-06-07T04:37:17Z</time>
      </trkpt>
      <trkpt lat="42.71288" lon="-0.0534">
        <ele>2230</ele>
        <time>2013-06-07T04:37:25Z</time>
      </trkpt>
      <trkpt lat="42.71286" lon="-0.0535">
        <ele>2231</ele>
        <time>2013-06-07T04:37:33Z</time>
      </trkpt>
      <trkpt lat="42.71284" lon="-0.05359">
        <ele>2232</ele>
        <time>2013-06-07T04:37:41Z</time>
      </trkpt>
      <trkpt lat="42.71282" lon="-0.05368">
        <ele>2232</ele>
        <time>2013-06-07T04:37:48Z</time>
      </trkpt>
      <trkpt lat="42.71279" lon="-0.05379">
        <ele>2232</ele>
        <time>2013-06-07T04:37:58Z</time>
      </trkpt>
      <trkpt lat="42.71278" lon="-0.05385">
        <ele>2233</ele>
        <time>2013-06-07T04:38:06Z</time>
      </trkpt>
      <trkpt lat="42.71276" lon="-0.05392">
        <ele>2232</ele>
        <time>2013-06-07T04:38:14Z</time>
      </trkpt>
      <trkpt lat="42.71275" lon="-0.05396">
        <ele>2233</ele>
        <time>2013-06-07T04:38:23Z</time>
      </trkpt>
      <trkpt lat="42.71273" lon="-0.054">
        <ele>2232</ele>
        <time>2013-06-07T04:38:27Z</time>
      </trkpt>
      <trkpt lat="42.71263" lon="-0.05416">
        <ele>2230</ele>
        <time>2013-06-07T04:38:37Z</time>
      </trkpt>
      <trkpt lat="42.71261" lon="-0.0542">
        <ele>2228</ele>
        <time>2013-06-07T04:38:39Z</time>
      </trkpt>
      <trkpt lat="42.71251" lon="-0.05436">
        <ele>2226</ele>
        <time>2013-06-07T04:38:46Z</time>
      </trkpt>
      <trkpt lat="42.71245" lon="-0.05445">
        <ele>2221</ele>
        <time>2013-06-07T04:38:50Z</time>
      </trkpt>
      <trkpt lat="42.71238" lon="-0.05454">
        <ele>2217</ele>
        <time>2013-06-07T04:38:54Z</time>
      </trkpt>
      <trkpt lat="42.71235" lon="-0.05459">
        <ele>2216</ele>
        <time>2013-06-07T04:38:57Z</time>
      </trkpt>
      <trkpt lat="42.71233" lon="-0.05463">
        <ele>2216</ele>
        <time>2013-06-07T04:39:03Z</time>
      </trkpt>
      <trkpt lat="42.71234" lon="-0.05464">
        <ele>2217</ele>
        <time>2013-06-07T04:39:18Z</time>
      </trkpt>
      <trkpt lat="42.71234" lon="-0.05464">
        <ele>2216</ele>
        <time>2013-06-07T04:39:27Z</time>
      </trkpt>
      <trkpt lat="42.71234" lon="-0.05465">
        <ele>2216</ele>
        <time>2013-06-07T04:39:43Z</time>
      </trkpt>
      <trkpt lat="42.71232" lon="-0.05466">
        <ele>2217</ele>
        <time>2013-06-07T04:39:48Z</time>
      </trkpt>
      <trkpt lat="42.71232" lon="-0.05467">
        <ele>2216</ele>
        <time>2013-06-07T04:39:49Z</time>
      </trkpt>
      <trkpt lat="42.71231" lon="-0.05469">
        <ele>2216</ele>
        <time>2013-06-07T04:39:50Z</time>
      </trkpt>
      <trkpt lat="42.71231" lon="-0.0547">
        <ele>2216</ele>
        <time>2013-06-07T04:39:51Z</time>
      </trkpt>
      <trkpt lat="42.71231" lon="-0.05472">
        <ele>2216</ele>
        <time>2013-06-07T04:39:52Z</time>
      </trkpt>
      <trkpt lat="42.71229" lon="-0.05478">
        <ele>2215</ele>
        <time>2013-06-07T04:39:59Z</time>
      </trkpt>
      <trkpt lat="42.71229" lon="-0.05481">
        <ele>2215</ele>
        <time>2013-06-07T04:40:05Z</time>
      </trkpt>
      <trkpt lat="42.71229" lon="-0.05482">
        <ele>2215</ele>
        <time>2013-06-07T04:40:06Z</time>
      </trkpt>
      <trkpt lat="42.71227" lon="-0.05487">
        <ele>2215</ele>
        <time>2013-06-07T04:40:10Z</time>
      </trkpt>
      <trkpt lat="42.71227" lon="-0.05489">
        <ele>2215</ele>
        <time>2013-06-07T04:40:11Z</time>
      </trkpt>
      <trkpt lat="42.71227" lon="-0.0549">
        <ele>2215</ele>
        <time>2013-06-07T04:40:17Z</time>
      </trkpt>
      <trkpt lat="42.71227" lon="-0.05491">
        <ele>2215</ele>
        <time>2013-06-07T04:40:32Z</time>
      </trkpt>
      <trkpt lat="42.71227" lon="-0.05491">
        <ele>2215</ele>
        <time>2013-06-07T04:40:52Z</time>
      </trkpt>
      <trkpt lat="42.71226" lon="-0.05491">
        <ele>2215</ele>
        <time>2013-06-07T04:41:07Z</time>
      </trkpt>
      <trkpt lat="42.71226" lon="-0.05492">
        <ele>2214</ele>
        <time>2013-06-07T04:41:22Z</time>
      </trkpt>
      <trkpt lat="42.71227" lon="-0.05491">
        <ele>2214</ele>
        <time>2013-06-07T04:41:37Z</time>
      </trkpt>
      <trkpt lat="42.71227" lon="-0.05491">
        <ele>2215</ele>
        <time>2013-06-07T04:41:48Z</time>
      </trkpt>
      <trkpt lat="42.71226" lon="-0.05491">
        <ele>2215</ele>
        <time>2013-06-07T04:41:58Z</time>
      </trkpt>
      <trkpt lat="42.71228" lon="-0.05491">
        <ele>2214</ele>
        <time>2013-06-07T04:42:08Z</time>
      </trkpt>
      <trkpt lat="42.71229" lon="-0.0549">
        <ele>2215</ele>
        <time>2013-06-07T04:42:28Z</time>
      </trkpt>
      <trkpt lat="42.71228" lon="-0.05491">
        <ele>2215</ele>
        <time>2013-06-07T04:42:31Z</time>
      </trkpt>
      <trkpt lat="42.71228" lon="-0.05492">
        <ele>2215</ele>
        <time>2013-06-07T04:42:32Z</time>
      </trkpt>
      <trkpt lat="42.71227" lon="-0.05496">
        <ele>2215</ele>
        <time>2013-06-07T04:42:39Z</time>
      </trkpt>
      <trkpt lat="42.71227" lon="-0.05497">
        <ele>2215</ele>
        <time>2013-06-07T04:42:40Z</time>
      </trkpt>
      <trkpt lat="42.71226" lon="-0.05498">
        <ele>2215</ele>
        <time>2013-06-07T04:42:41Z</time>
      </trkpt>
      <trkpt lat="42.71224" lon="-0.05507">
        <ele>2215</ele>
        <time>2013-06-07T04:42:47Z</time>
      </trkpt>
      <trkpt lat="42.71223" lon="-0.05509">
        <ele>2215</ele>
        <time>2013-06-07T04:42:48Z</time>
      </trkpt>
      <trkpt lat="42.71223" lon="-0.05511">
        <ele>2215</ele>
        <time>2013-06-07T04:42:49Z</time>
      </trkpt>
      <trkpt lat="42.71223" lon="-0.05512">
        <ele>2215</ele>
        <time>2013-06-07T04:42:50Z</time>
      </trkpt>
      <trkpt lat="42.71223" lon="-0.05513">
        <ele>2215</ele>
        <time>2013-06-07T04:42:51Z</time>
      </trkpt>
      <trkpt lat="42.71222" lon="-0.05515">
        <ele>2215</ele>
        <time>2013-06-07T04:42:52Z</time>
      </trkpt>
      <trkpt lat="42.7122" lon="-0.05524">
        <ele>2214</ele>
        <time>2013-06-07T04:42:58Z</time>
      </trkpt>
      <trkpt lat="42.71219" lon="-0.05526">
        <ele>2215</ele>
        <time>2013-06-07T04:42:59Z</time>
      </trkpt>
      <trkpt lat="42.71219" lon="-0.05527">
        <ele>2214</ele>
        <time>2013-06-07T04:43:00Z</time>
      </trkpt>
      <trkpt lat="42.71219" lon="-0.05528">
        <ele>2215</ele>
        <time>2013-06-07T04:43:01Z</time>
      </trkpt>
      <trkpt lat="42.71218" lon="-0.0553">
        <ele>2215</ele>
        <time>2013-06-07T04:43:02Z</time>
      </trkpt>
      <trkpt lat="42.71218" lon="-0.05534">
        <ele>2215</ele>
        <time>2013-06-07T04:43:05Z</time>
      </trkpt>
      <trkpt lat="42.71217" lon="-0.05535">
        <ele>2215</ele>
        <time>2013-06-07T04:43:06Z</time>
      </trkpt>
      <trkpt lat="42.71217" lon="-0.05537">
        <ele>2215</ele>
        <time>2013-06-07T04:43:07Z</time>
      </trkpt>
      <trkpt lat="42.71216" lon="-0.05539">
        <ele>2215</ele>
        <time>2013-06-07T04:43:08Z</time>
      </trkpt>
      <trkpt lat="42.71215" lon="-0.0554">
        <ele>2214</ele>
        <time>2013-06-07T04:43:09Z</time>
      </trkpt>
      <trkpt lat="42.71215" lon="-0.05542">
        <ele>2215</ele>
        <time>2013-06-07T04:43:10Z</time>
      </trkpt>
      <trkpt lat="42.71214" lon="-0.05544">
        <ele>2215</ele>
        <time>2013-06-07T04:43:11Z</time>
      </trkpt>
      <trkpt lat="42.71214" lon="-0.05545">
        <ele>2214</ele>
        <time>2013-06-07T04:43:12Z</time>
      </trkpt>
      <trkpt lat="42.71213" lon="-0.05547">
        <ele>2215</ele>
        <time>2013-06-07T04:43:13Z</time>
      </trkpt>
      <trkpt lat="42.7121" lon="-0.05559">
        <ele>2215</ele>
        <time>2013-06-07T04:43:20Z</time>
      </trkpt>
      <trkpt lat="42.71207" lon="-0.0557">
        <ele>2215</ele>
        <time>2013-06-07T04:43:27Z</time>
      </trkpt>
      <trkpt lat="42.71205" lon="-0.05576">
        <ele>2215</ele>
        <time>2013-06-07T04:43:31Z</time>
      </trkpt>
      <trkpt lat="42.71205" lon="-0.05577">
        <ele>2215</ele>
        <time>2013-06-07T04:43:32Z</time>
      </trkpt>
      <trkpt lat="42.71202" lon="-0.05586">
        <ele>2215</ele>
        <time>2013-06-07T04:43:39Z</time>
      </trkpt>
      <trkpt lat="42.71197" lon="-0.05598">
        <ele>2215</ele>
        <time>2013-06-07T04:43:47Z</time>
      </trkpt>
      <trkpt lat="42.71192" lon="-0.05609">
        <ele>2215</ele>
        <time>2013-06-07T04:43:55Z</time>
      </trkpt>
      <trkpt lat="42.71186" lon="-0.05617">
        <ele>2215</ele>
        <time>2013-06-07T04:44:02Z</time>
      </trkpt>
      <trkpt lat="42.71183" lon="-0.05621">
        <ele>2216</ele>
        <time>2013-06-07T04:44:06Z</time>
      </trkpt>
      <trkpt lat="42.71183" lon="-0.05622">
        <ele>2215</ele>
        <time>2013-06-07T04:44:07Z</time>
      </trkpt>
      <trkpt lat="42.71182" lon="-0.05623">
        <ele>2215</ele>
        <time>2013-06-07T04:44:08Z</time>
      </trkpt>
      <trkpt lat="42.7118" lon="-0.05626">
        <ele>2216</ele>
        <time>2013-06-07T04:44:11Z</time>
      </trkpt>
      <trkpt lat="42.71176" lon="-0.05633">
        <ele>2215</ele>
        <time>2013-06-07T04:44:18Z</time>
      </trkpt>
      <trkpt lat="42.71171" lon="-0.05639">
        <ele>2215</ele>
        <time>2013-06-07T04:44:23Z</time>
      </trkpt>
      <trkpt lat="42.71167" lon="-0.05646">
        <ele>2216</ele>
        <time>2013-06-07T04:44:30Z</time>
      </trkpt>
      <trkpt lat="42.71159" lon="-0.05655">
        <ele>2216</ele>
        <time>2013-06-07T04:44:38Z</time>
      </trkpt>
      <trkpt lat="42.71155" lon="-0.05659">
        <ele>2216</ele>
        <time>2013-06-07T04:44:42Z</time>
      </trkpt>
      <trkpt lat="42.71149" lon="-0.05664">
        <ele>2216</ele>
        <time>2013-06-07T04:44:49Z</time>
      </trkpt>
      <trkpt lat="42.7114" lon="-0.0567">
        <ele>2216</ele>
        <time>2013-06-07T04:44:57Z</time>
      </trkpt>
      <trkpt lat="42.7113" lon="-0.05673">
        <ele>2215</ele>
        <time>2013-06-07T04:45:05Z</time>
      </trkpt>
      <trkpt lat="42.71122" lon="-0.05676">
        <ele>2215</ele>
        <time>2013-06-07T04:45:12Z</time>
      </trkpt>
      <trkpt lat="42.71115" lon="-0.0568">
        <ele>2214</ele>
        <time>2013-06-07T04:45:18Z</time>
      </trkpt>
      <trkpt lat="42.71107" lon="-0.05688">
        <ele>2215</ele>
        <time>2013-06-07T04:45:27Z</time>
      </trkpt>
      <trkpt lat="42.71101" lon="-0.05694">
        <ele>2215</ele>
        <time>2013-06-07T04:45:34Z</time>
      </trkpt>
      <trkpt lat="42.71094" lon="-0.057">
        <ele>2214</ele>
        <time>2013-06-07T04:45:41Z</time>
      </trkpt>
      <trkpt lat="42.71088" lon="-0.05706">
        <ele>2213</ele>
        <time>2013-06-07T04:45:47Z</time>
      </trkpt>
      <trkpt lat="42.7108" lon="-0.05713">
        <ele>2213</ele>
        <time>2013-06-07T04:45:56Z</time>
      </trkpt>
      <trkpt lat="42.71072" lon="-0.0572">
        <ele>2213</ele>
        <time>2013-06-07T04:46:04Z</time>
      </trkpt>
      <trkpt lat="42.71071" lon="-0.05721">
        <ele>2213</ele>
        <time>2013-06-07T04:46:05Z</time>
      </trkpt>
      <trkpt lat="42.7107" lon="-0.05722">
        <ele>2212</ele>
        <time>2013-06-07T04:46:06Z</time>
      </trkpt>
      <trkpt lat="42.71069" lon="-0.05723">
        <ele>2213</ele>
        <time>2013-06-07T04:46:07Z</time>
      </trkpt>
      <trkpt lat="42.71068" lon="-0.05724">
        <ele>2213</ele>
        <time>2013-06-07T04:46:08Z</time>
      </trkpt>
      <trkpt lat="42.71068" lon="-0.05725">
        <ele>2213</ele>
        <time>2013-06-07T04:46:09Z</time>
      </trkpt>
      <trkpt lat="42.71067" lon="-0.05726">
        <ele>2213</ele>
        <time>2013-06-07T04:46:10Z</time>
      </trkpt>
      <trkpt lat="42.71065" lon="-0.05727">
        <ele>2213</ele>
        <time>2013-06-07T04:46:11Z</time>
      </trkpt>
      <trkpt lat="42.71063" lon="-0.0573">
        <ele>2213</ele>
        <time>2013-06-07T04:46:18Z</time>
      </trkpt>
      <trkpt lat="42.71062" lon="-0.0573">
        <ele>2212</ele>
        <time>2013-06-07T04:46:30Z</time>
      </trkpt>
      <trkpt lat="42.71058" lon="-0.05738">
        <ele>2214</ele>
        <time>2013-06-07T04:46:40Z</time>
      </trkpt>
      <trkpt lat="42.71054" lon="-0.05746">
        <ele>2214</ele>
        <time>2013-06-07T04:46:48Z</time>
      </trkpt>
      <trkpt lat="42.71052" lon="-0.05748">
        <ele>2214</ele>
        <time>2013-06-07T04:46:50Z</time>
      </trkpt>
      <trkpt lat="42.71051" lon="-0.05749">
        <ele>2213</ele>
        <time>2013-06-07T04:46:51Z</time>
      </trkpt>
      <trkpt lat="42.71051" lon="-0.0575">
        <ele>2214</ele>
        <time>2013-06-07T04:46:52Z</time>
      </trkpt>
      <trkpt lat="42.71046" lon="-0.05758">
        <ele>2214</ele>
        <time>2013-06-07T04:46:59Z</time>
      </trkpt>
      <trkpt lat="42.71042" lon="-0.05763">
        <ele>2214</ele>
        <time>2013-06-07T04:47:04Z</time>
      </trkpt>
      <trkpt lat="42.71037" lon="-0.05773">
        <ele>2214</ele>
        <time>2013-06-07T04:47:12Z</time>
      </trkpt>
      <trkpt lat="42.71036" lon="-0.05774">
        <ele>2214</ele>
        <time>2013-06-07T04:47:13Z</time>
      </trkpt>
      <trkpt lat="42.71031" lon="-0.05781">
        <ele>2214</ele>
        <time>2013-06-07T04:47:20Z</time>
      </trkpt>
      <trkpt lat="42.7103" lon="-0.05784">
        <ele>2215</ele>
        <time>2013-06-07T04:47:23Z</time>
      </trkpt>
      <trkpt lat="42.7103" lon="-0.05786">
        <ele>2214</ele>
        <time>2013-06-07T04:47:24Z</time>
      </trkpt>
      <trkpt lat="42.71023" lon="-0.05798">
        <ele>2216</ele>
        <time>2013-06-07T04:47:33Z</time>
      </trkpt>
      <trkpt lat="42.71018" lon="-0.05806">
        <ele>2214</ele>
        <time>2013-06-07T04:47:40Z</time>
      </trkpt>
      <trkpt lat="42.71014" lon="-0.05814">
        <ele>2214</ele>
        <time>2013-06-07T04:47:47Z</time>
      </trkpt>
      <trkpt lat="42.71008" lon="-0.05822">
        <ele>2213</ele>
        <time>2013-06-07T04:47:55Z</time>
      </trkpt>
      <trkpt lat="42.71006" lon="-0.05826">
        <ele>2212</ele>
        <time>2013-06-07T04:47:58Z</time>
      </trkpt>
      <trkpt lat="42.71006" lon="-0.05827">
        <ele>2213</ele>
        <time>2013-06-07T04:47:59Z</time>
      </trkpt>
      <trkpt lat="42.71005" lon="-0.05828">
        <ele>2213</ele>
        <time>2013-06-07T04:48:00Z</time>
      </trkpt>
      <trkpt lat="42.70999" lon="-0.05839">
        <ele>2213</ele>
        <time>2013-06-07T04:48:08Z</time>
      </trkpt>
      <trkpt lat="42.70995" lon="-0.05845">
        <ele>2213</ele>
        <time>2013-06-07T04:48:13Z</time>
      </trkpt>
      <trkpt lat="42.70995" lon="-0.05847">
        <ele>2213</ele>
        <time>2013-06-07T04:48:14Z</time>
      </trkpt>
      <trkpt lat="42.70994" lon="-0.05848">
        <ele>2213</ele>
        <time>2013-06-07T04:48:15Z</time>
      </trkpt>
      <trkpt lat="42.70989" lon="-0.05856">
        <ele>2213</ele>
        <time>2013-06-07T04:48:22Z</time>
      </trkpt>
      <trkpt lat="42.70984" lon="-0.05864">
        <ele>2213</ele>
        <time>2013-06-07T04:48:30Z</time>
      </trkpt>
      <trkpt lat="42.70979" lon="-0.0587">
        <ele>2214</ele>
        <time>2013-06-07T04:48:38Z</time>
      </trkpt>
      <trkpt lat="42.70971" lon="-0.05877">
        <ele>2214</ele>
        <time>2013-06-07T04:48:46Z</time>
      </trkpt>
      <trkpt lat="42.70962" lon="-0.05883">
        <ele>2213</ele>
        <time>2013-06-07T04:48:54Z</time>
      </trkpt>
      <trkpt lat="42.70956" lon="-0.05888">
        <ele>2212</ele>
        <time>2013-06-07T04:49:01Z</time>
      </trkpt>
      <trkpt lat="42.7095" lon="-0.05893">
        <ele>2212</ele>
        <time>2013-06-07T04:49:08Z</time>
      </trkpt>
      <trkpt lat="42.70944" lon="-0.05899">
        <ele>2211</ele>
        <time>2013-06-07T04:49:14Z</time>
      </trkpt>
      <trkpt lat="42.70936" lon="-0.05907">
        <ele>2212</ele>
        <time>2013-06-07T04:49:23Z</time>
      </trkpt>
      <trkpt lat="42.70929" lon="-0.05912">
        <ele>2212</ele>
        <time>2013-06-07T04:49:30Z</time>
      </trkpt>
      <trkpt lat="42.70922" lon="-0.05917">
        <ele>2212</ele>
        <time>2013-06-07T04:49:38Z</time>
      </trkpt>
      <trkpt lat="42.70916" lon="-0.05921">
        <ele>2213</ele>
        <time>2013-06-07T04:49:46Z</time>
      </trkpt>
      <trkpt lat="42.70911" lon="-0.05927">
        <ele>2213</ele>
        <time>2013-06-07T04:49:54Z</time>
      </trkpt>
      <trkpt lat="42.70905" lon="-0.05931">
        <ele>2212</ele>
        <time>2013-06-07T04:50:01Z</time>
      </trkpt>
      <trkpt lat="42.70903" lon="-0.05932">
        <ele>2213</ele>
        <time>2013-06-07T04:50:03Z</time>
      </trkpt>
      <trkpt lat="42.70898" lon="-0.05936">
        <ele>2213</ele>
        <time>2013-06-07T04:50:10Z</time>
      </trkpt>
      <trkpt lat="42.70894" lon="-0.05942">
        <ele>2214</ele>
        <time>2013-06-07T04:50:18Z</time>
      </trkpt>
      <trkpt lat="42.7089" lon="-0.05948">
        <ele>2215</ele>
        <time>2013-06-07T04:50:25Z</time>
      </trkpt>
      <trkpt lat="42.70887" lon="-0.05954">
        <ele>2215</ele>
        <time>2013-06-07T04:50:33Z</time>
      </trkpt>
      <trkpt lat="42.70883" lon="-0.05957">
        <ele>2215</ele>
        <time>2013-06-07T04:50:41Z</time>
      </trkpt>
      <trkpt lat="42.70881" lon="-0.05961">
        <ele>2215</ele>
        <time>2013-06-07T04:50:49Z</time>
      </trkpt>
      <trkpt lat="42.70876" lon="-0.05965">
        <ele>2217</ele>
        <time>2013-06-07T04:50:56Z</time>
      </trkpt>
      <trkpt lat="42.70872" lon="-0.05971">
        <ele>2216</ele>
        <time>2013-06-07T04:51:04Z</time>
      </trkpt>
      <trkpt lat="42.70869" lon="-0.05975">
        <ele>2217</ele>
        <time>2013-06-07T04:51:11Z</time>
      </trkpt>
      <trkpt lat="42.70866" lon="-0.05979">
        <ele>2217</ele>
        <time>2013-06-07T04:51:18Z</time>
      </trkpt>
      <trkpt lat="42.70861" lon="-0.05984">
        <ele>2216</ele>
        <time>2013-06-07T04:51:26Z</time>
      </trkpt>
      <trkpt lat="42.70856" lon="-0.05989">
        <ele>2218</ele>
        <time>2013-06-07T04:51:32Z</time>
      </trkpt>
      <trkpt lat="42.7085" lon="-0.05993">
        <ele>2217</ele>
        <time>2013-06-07T04:51:39Z</time>
      </trkpt>
      <trkpt lat="42.70846" lon="-0.05997">
        <ele>2218</ele>
        <time>2013-06-07T04:51:46Z</time>
      </trkpt>
      <trkpt lat="42.70842" lon="-0.06">
        <ele>2218</ele>
        <time>2013-06-07T04:51:55Z</time>
      </trkpt>
      <trkpt lat="42.70836" lon="-0.06004">
        <ele>2219</ele>
        <time>2013-06-07T04:52:02Z</time>
      </trkpt>
      <trkpt lat="42.70832" lon="-0.06008">
        <ele>2219</ele>
        <time>2013-06-07T04:52:09Z</time>
      </trkpt>
      <trkpt lat="42.70827" lon="-0.06012">
        <ele>2220</ele>
        <time>2013-06-07T04:52:16Z</time>
      </trkpt>
      <trkpt lat="42.70822" lon="-0.06016">
        <ele>2220</ele>
        <time>2013-06-07T04:52:23Z</time>
      </trkpt>
      <trkpt lat="42.70816" lon="-0.06019">
        <ele>2220</ele>
        <time>2013-06-07T04:52:30Z</time>
      </trkpt>
      <trkpt lat="42.70811" lon="-0.06022">
        <ele>2222</ele>
        <time>2013-06-07T04:52:38Z</time>
      </trkpt>
      <trkpt lat="42.70806" lon="-0.06029">
        <ele>2222</ele>
        <time>2013-06-07T04:52:45Z</time>
      </trkpt>
      <trkpt lat="42.70804" lon="-0.06032">
        <ele>2223</ele>
        <time>2013-06-07T04:52:49Z</time>
      </trkpt>
      <trkpt lat="42.70803" lon="-0.06033">
        <ele>2223</ele>
        <time>2013-06-07T04:52:50Z</time>
      </trkpt>
      <trkpt lat="42.708" lon="-0.06037">
        <ele>2224</ele>
        <time>2013-06-07T04:52:55Z</time>
      </trkpt>
      <trkpt lat="42.70793" lon="-0.06043">
        <ele>2223</ele>
        <time>2013-06-07T04:53:03Z</time>
      </trkpt>
      <trkpt lat="42.70789" lon="-0.06047">
        <ele>2224</ele>
        <time>2013-06-07T04:53:09Z</time>
      </trkpt>
      <trkpt lat="42.70786" lon="-0.06052">
        <ele>2224</ele>
        <time>2013-06-07T04:53:15Z</time>
      </trkpt>
      <trkpt lat="42.70783" lon="-0.06053">
        <ele>2226</ele>
        <time>2013-06-07T04:53:19Z</time>
      </trkpt>
      <trkpt lat="42.70781" lon="-0.06055">
        <ele>2225</ele>
        <time>2013-06-07T04:53:21Z</time>
      </trkpt>
      <trkpt lat="42.7078" lon="-0.06057">
        <ele>2226</ele>
        <time>2013-06-07T04:53:25Z</time>
      </trkpt>
      <trkpt lat="42.70777" lon="-0.06062">
        <ele>2226</ele>
        <time>2013-06-07T04:53:32Z</time>
      </trkpt>
      <trkpt lat="42.70773" lon="-0.06068">
        <ele>2227</ele>
        <time>2013-06-07T04:53:40Z</time>
      </trkpt>
      <trkpt lat="42.7077" lon="-0.06073">
        <ele>2229</ele>
        <time>2013-06-07T04:53:47Z</time>
      </trkpt>
      <trkpt lat="42.70771" lon="-0.0607">
        <ele>2228</ele>
        <time>2013-06-07T04:53:59Z</time>
      </trkpt>
      <trkpt lat="42.70764" lon="-0.06077">
        <ele>2229</ele>
        <time>2013-06-07T04:54:08Z</time>
      </trkpt>
      <trkpt lat="42.70762" lon="-0.06078">
        <ele>2229</ele>
        <time>2013-06-07T04:54:09Z</time>
      </trkpt>
      <trkpt lat="42.70761" lon="-0.06079">
        <ele>2230</ele>
        <time>2013-06-07T04:54:10Z</time>
      </trkpt>
      <trkpt lat="42.70757" lon="-0.06085">
        <ele>2231</ele>
        <time>2013-06-07T04:54:18Z</time>
      </trkpt>
      <trkpt lat="42.70751" lon="-0.06092">
        <ele>2231</ele>
        <time>2013-06-07T04:54:26Z</time>
      </trkpt>
      <trkpt lat="42.70745" lon="-0.061">
        <ele>2231</ele>
        <time>2013-06-07T04:54:34Z</time>
      </trkpt>
      <trkpt lat="42.70739" lon="-0.06107">
        <ele>2232</ele>
        <time>2013-06-07T04:54:41Z</time>
      </trkpt>
      <trkpt lat="42.70735" lon="-0.06114">
        <ele>2233</ele>
        <time>2013-06-07T04:54:48Z</time>
      </trkpt>
      <trkpt lat="42.70731" lon="-0.06121">
        <ele>2234</ele>
        <time>2013-06-07T04:54:55Z</time>
      </trkpt>
      <trkpt lat="42.70733" lon="-0.06127">
        <ele>2235</ele>
        <time>2013-06-07T04:55:02Z</time>
      </trkpt>
      <trkpt lat="42.70733" lon="-0.06128">
        <ele>2235</ele>
        <time>2013-06-07T04:55:04Z</time>
      </trkpt>
      <trkpt lat="42.70732" lon="-0.06129">
        <ele>2235</ele>
        <time>2013-06-07T04:55:05Z</time>
      </trkpt>
      <trkpt lat="42.70728" lon="-0.06134">
        <ele>2235</ele>
        <time>2013-06-07T04:55:10Z</time>
      </trkpt>
      <trkpt lat="42.70727" lon="-0.06139">
        <ele>2235</ele>
        <time>2013-06-07T04:55:14Z</time>
      </trkpt>
      <trkpt lat="42.70727" lon="-0.0614">
        <ele>2235</ele>
        <time>2013-06-07T04:55:15Z</time>
      </trkpt>
      <trkpt lat="42.70725" lon="-0.06142">
        <ele>2235</ele>
        <time>2013-06-07T04:55:17Z</time>
      </trkpt>
      <trkpt lat="42.70724" lon="-0.06144">
        <ele>2235</ele>
        <time>2013-06-07T04:55:18Z</time>
      </trkpt>
      <trkpt lat="42.70723" lon="-0.06144">
        <ele>2235</ele>
        <time>2013-06-07T04:55:19Z</time>
      </trkpt>
      <trkpt lat="42.70718" lon="-0.06154">
        <ele>2235</ele>
        <time>2013-06-07T04:55:26Z</time>
      </trkpt>
      <trkpt lat="42.70717" lon="-0.06155">
        <ele>2235</ele>
        <time>2013-06-07T04:55:27Z</time>
      </trkpt>
      <trkpt lat="42.70716" lon="-0.06156">
        <ele>2235</ele>
        <time>2013-06-07T04:55:28Z</time>
      </trkpt>
      <trkpt lat="42.70713" lon="-0.0616">
        <ele>2234</ele>
        <time>2013-06-07T04:55:32Z</time>
      </trkpt>
      <trkpt lat="42.70713" lon="-0.06162">
        <ele>2234</ele>
        <time>2013-06-07T04:55:33Z</time>
      </trkpt>
      <trkpt lat="42.70712" lon="-0.06164">
        <ele>2236</ele>
        <time>2013-06-07T04:55:35Z</time>
      </trkpt>
      <trkpt lat="42.70711" lon="-0.06171">
        <ele>2236</ele>
        <time>2013-06-07T04:55:41Z</time>
      </trkpt>
      <trkpt lat="42.7071" lon="-0.06178">
        <ele>2237</ele>
        <time>2013-06-07T04:55:47Z</time>
      </trkpt>
      <trkpt lat="42.70709" lon="-0.06179">
        <ele>2238</ele>
        <time>2013-06-07T04:55:48Z</time>
      </trkpt>
      <trkpt lat="42.70711" lon="-0.06185">
        <ele>2237</ele>
        <time>2013-06-07T04:55:52Z</time>
      </trkpt>
      <trkpt lat="42.70711" lon="-0.06186">
        <ele>2237</ele>
        <time>2013-06-07T04:55:53Z</time>
      </trkpt>
      <trkpt lat="42.7071" lon="-0.0619">
        <ele>2237</ele>
        <time>2013-06-07T04:56:00Z</time>
      </trkpt>
      <trkpt lat="42.70702" lon="-0.06196">
        <ele>2237</ele>
        <time>2013-06-07T04:56:08Z</time>
      </trkpt>
      <trkpt lat="42.70698" lon="-0.06205">
        <ele>2239</ele>
        <time>2013-06-07T04:56:18Z</time>
      </trkpt>
      <trkpt lat="42.70696" lon="-0.06209">
        <ele>2238</ele>
        <time>2013-06-07T04:56:23Z</time>
      </trkpt>
      <trkpt lat="42.7069" lon="-0.06215">
        <ele>2239</ele>
        <time>2013-06-07T04:56:31Z</time>
      </trkpt>
      <trkpt lat="42.70682" lon="-0.06221">
        <ele>2241</ele>
        <time>2013-06-07T04:56:40Z</time>
      </trkpt>
      <trkpt lat="42.70681" lon="-0.06222">
        <ele>2241</ele>
        <time>2013-06-07T04:56:41Z</time>
      </trkpt>
      <trkpt lat="42.70678" lon="-0.06223">
        <ele>2241</ele>
        <time>2013-06-07T04:56:43Z</time>
      </trkpt>
      <trkpt lat="42.7067" lon="-0.06229">
        <ele>2241</ele>
        <time>2013-06-07T04:56:51Z</time>
      </trkpt>
      <trkpt lat="42.70662" lon="-0.06233">
        <ele>2242</ele>
        <time>2013-06-07T04:56:59Z</time>
      </trkpt>
      <trkpt lat="42.70657" lon="-0.06237">
        <ele>2243</ele>
        <time>2013-06-07T04:57:07Z</time>
      </trkpt>
      <trkpt lat="42.70651" lon="-0.06243">
        <ele>2245</ele>
        <time>2013-06-07T04:57:16Z</time>
      </trkpt>
      <trkpt lat="42.7065" lon="-0.06246">
        <ele>2245</ele>
        <time>2013-06-07T04:57:19Z</time>
      </trkpt>
      <trkpt lat="42.70645" lon="-0.0625">
        <ele>2246</ele>
        <time>2013-06-07T04:57:26Z</time>
      </trkpt>
      <trkpt lat="42.70636" lon="-0.06254">
        <ele>2245</ele>
        <time>2013-06-07T04:57:34Z</time>
      </trkpt>
      <trkpt lat="42.70632" lon="-0.06258">
        <ele>2243</ele>
        <time>2013-06-07T04:57:40Z</time>
      </trkpt>
      <trkpt lat="42.70626" lon="-0.06264">
        <ele>2246</ele>
        <time>2013-06-07T04:57:48Z</time>
      </trkpt>
      <trkpt lat="42.70623" lon="-0.06267">
        <ele>2246</ele>
        <time>2013-06-07T04:57:52Z</time>
      </trkpt>
      <trkpt lat="42.70624" lon="-0.06271">
        <ele>2247</ele>
        <time>2013-06-07T04:57:58Z</time>
      </trkpt>
      <trkpt lat="42.70618" lon="-0.06276">
        <ele>2247</ele>
        <time>2013-06-07T04:58:05Z</time>
      </trkpt>
      <trkpt lat="42.70613" lon="-0.06279">
        <ele>2248</ele>
        <time>2013-06-07T04:58:12Z</time>
      </trkpt>
      <trkpt lat="42.7061" lon="-0.0628">
        <ele>2249</ele>
        <time>2013-06-07T04:58:16Z</time>
      </trkpt>
      <trkpt lat="42.70609" lon="-0.06281">
        <ele>2249</ele>
        <time>2013-06-07T04:58:17Z</time>
      </trkpt>
      <trkpt lat="42.70608" lon="-0.06282">
        <ele>2249</ele>
        <time>2013-06-07T04:58:18Z</time>
      </trkpt>
      <trkpt lat="42.70601" lon="-0.06286">
        <ele>2250</ele>
        <time>2013-06-07T04:58:26Z</time>
      </trkpt>
      <trkpt lat="42.70596" lon="-0.06289">
        <ele>2250</ele>
        <time>2013-06-07T04:58:32Z</time>
      </trkpt>
      <trkpt lat="42.70594" lon="-0.0629">
        <ele>2250</ele>
        <time>2013-06-07T04:58:33Z</time>
      </trkpt>
      <trkpt lat="42.70588" lon="-0.06293">
        <ele>2251</ele>
        <time>2013-06-07T04:58:41Z</time>
      </trkpt>
      <trkpt lat="42.70582" lon="-0.06296">
        <ele>2252</ele>
        <time>2013-06-07T04:58:49Z</time>
      </trkpt>
      <trkpt lat="42.70577" lon="-0.06302">
        <ele>2253</ele>
        <time>2013-06-07T04:58:57Z</time>
      </trkpt>
      <trkpt lat="42.70569" lon="-0.06306">
        <ele>2253</ele>
        <time>2013-06-07T04:59:05Z</time>
      </trkpt>
      <trkpt lat="42.70564" lon="-0.0631">
        <ele>2254</ele>
        <time>2013-06-07T04:59:13Z</time>
      </trkpt>
      <trkpt lat="42.70562" lon="-0.06311">
        <ele>2254</ele>
        <time>2013-06-07T04:59:15Z</time>
      </trkpt>
      <trkpt lat="42.70556" lon="-0.06313">
        <ele>2254</ele>
        <time>2013-06-07T04:59:21Z</time>
      </trkpt>
      <trkpt lat="42.7055" lon="-0.06317">
        <ele>2255</ele>
        <time>2013-06-07T04:59:30Z</time>
      </trkpt>
      <trkpt lat="42.70544" lon="-0.0632">
        <ele>2255</ele>
        <time>2013-06-07T04:59:37Z</time>
      </trkpt>
      <trkpt lat="42.70539" lon="-0.06321">
        <ele>2256</ele>
        <time>2013-06-07T04:59:46Z</time>
      </trkpt>
      <trkpt lat="42.70533" lon="-0.06325">
        <ele>2256</ele>
        <time>2013-06-07T04:59:54Z</time>
      </trkpt>
      <trkpt lat="42.70529" lon="-0.06327">
        <ele>2258</ele>
        <time>2013-06-07T04:59:59Z</time>
      </trkpt>
      <trkpt lat="42.70524" lon="-0.06328">
        <ele>2259</ele>
        <time>2013-06-07T05:00:07Z</time>
      </trkpt>
      <trkpt lat="42.70519" lon="-0.0633">
        <ele>2260</ele>
        <time>2013-06-07T05:00:14Z</time>
      </trkpt>
      <trkpt lat="42.70514" lon="-0.06333">
        <ele>2262</ele>
        <time>2013-06-07T05:00:21Z</time>
      </trkpt>
      <trkpt lat="42.70508" lon="-0.06334">
        <ele>2263</ele>
        <time>2013-06-07T05:00:28Z</time>
      </trkpt>
      <trkpt lat="42.70501" lon="-0.06337">
        <ele>2262</ele>
        <time>2013-06-07T05:00:36Z</time>
      </trkpt>
      <trkpt lat="42.70494" lon="-0.0634">
        <ele>2263</ele>
        <time>2013-06-07T05:00:44Z</time>
      </trkpt>
      <trkpt lat="42.70487" lon="-0.06344">
        <ele>2263</ele>
        <time>2013-06-07T05:00:52Z</time>
      </trkpt>
      <trkpt lat="42.70479" lon="-0.06347">
        <ele>2263</ele>
        <time>2013-06-07T05:01:01Z</time>
      </trkpt>
      <trkpt lat="42.70471" lon="-0.06349">
        <ele>2263</ele>
        <time>2013-06-07T05:01:10Z</time>
      </trkpt>
      <trkpt lat="42.70464" lon="-0.06351">
        <ele>2264</ele>
        <time>2013-06-07T05:01:19Z</time>
      </trkpt>
      <trkpt lat="42.70457" lon="-0.06354">
        <ele>2265</ele>
        <time>2013-06-07T05:01:27Z</time>
      </trkpt>
      <trkpt lat="42.70449" lon="-0.06355">
        <ele>2265</ele>
        <time>2013-06-07T05:01:37Z</time>
      </trkpt>
      <trkpt lat="42.70444" lon="-0.06356">
        <ele>2266</ele>
        <time>2013-06-07T05:01:44Z</time>
      </trkpt>
      <trkpt lat="42.70439" lon="-0.06357">
        <ele>2267</ele>
        <time>2013-06-07T05:01:49Z</time>
      </trkpt>
      <trkpt lat="42.70437" lon="-0.06357">
        <ele>2268</ele>
        <time>2013-06-07T05:01:51Z</time>
      </trkpt>
      <trkpt lat="42.70434" lon="-0.06358">
        <ele>2269</ele>
        <time>2013-06-07T05:01:57Z</time>
      </trkpt>
      <trkpt lat="42.70432" lon="-0.06358">
        <ele>2269</ele>
        <time>2013-06-07T05:01:59Z</time>
      </trkpt>
      <trkpt lat="42.7043" lon="-0.06359">
        <ele>2269</ele>
        <time>2013-06-07T05:02:00Z</time>
      </trkpt>
      <trkpt lat="42.70429" lon="-0.06359">
        <ele>2269</ele>
        <time>2013-06-07T05:02:06Z</time>
      </trkpt>
      <trkpt lat="42.70429" lon="-0.0636">
        <ele>2269</ele>
        <time>2013-06-07T05:02:17Z</time>
      </trkpt>
      <trkpt lat="42.7043" lon="-0.06358">
        <ele>2269</ele>
        <time>2013-06-07T05:02:27Z</time>
      </trkpt>
      <trkpt lat="42.70426" lon="-0.06359">
        <ele>2271</ele>
        <time>2013-06-07T05:02:34Z</time>
      </trkpt>
      <trkpt lat="42.70425" lon="-0.06359">
        <ele>2271</ele>
        <time>2013-06-07T05:02:35Z</time>
      </trkpt>
      <trkpt lat="42.70424" lon="-0.0636">
        <ele>2271</ele>
        <time>2013-06-07T05:02:36Z</time>
      </trkpt>
      <trkpt lat="42.70422" lon="-0.0636">
        <ele>2272</ele>
        <time>2013-06-07T05:02:37Z</time>
      </trkpt>
      <trkpt lat="42.70422" lon="-0.06361">
        <ele>2271</ele>
        <time>2013-06-07T05:02:38Z</time>
      </trkpt>
      <trkpt lat="42.70421" lon="-0.06362">
        <ele>2272</ele>
        <time>2013-06-07T05:02:39Z</time>
      </trkpt>
      <trkpt lat="42.70421" lon="-0.06363">
        <ele>2272</ele>
        <time>2013-06-07T05:02:40Z</time>
      </trkpt>
      <trkpt lat="42.7042" lon="-0.06364">
        <ele>2272</ele>
        <time>2013-06-07T05:02:41Z</time>
      </trkpt>
      <trkpt lat="42.70418" lon="-0.06364">
        <ele>2271</ele>
        <time>2013-06-07T05:02:42Z</time>
      </trkpt>
      <trkpt lat="42.70417" lon="-0.06365">
        <ele>2272</ele>
        <time>2013-06-07T05:02:43Z</time>
      </trkpt>
      <trkpt lat="42.70416" lon="-0.06366">
        <ele>2272</ele>
        <time>2013-06-07T05:02:44Z</time>
      </trkpt>
      <trkpt lat="42.70415" lon="-0.06367">
        <ele>2271</ele>
        <time>2013-06-07T05:02:45Z</time>
      </trkpt>
      <trkpt lat="42.70415" lon="-0.06368">
        <ele>2271</ele>
        <time>2013-06-07T05:02:46Z</time>
      </trkpt>
      <trkpt lat="42.70412" lon="-0.06377">
        <ele>2271</ele>
        <time>2013-06-07T05:02:53Z</time>
      </trkpt>
      <trkpt lat="42.7041" lon="-0.06381">
        <ele>2271</ele>
        <time>2013-06-07T05:02:57Z</time>
      </trkpt>
      <trkpt lat="42.70408" lon="-0.06387">
        <ele>2270</ele>
        <time>2013-06-07T05:03:04Z</time>
      </trkpt>
      <trkpt lat="42.70407" lon="-0.06392">
        <ele>2270</ele>
        <time>2013-06-07T05:03:11Z</time>
      </trkpt>
      <trkpt lat="42.70405" lon="-0.06399">
        <ele>2271</ele>
        <time>2013-06-07T05:03:16Z</time>
      </trkpt>
      <trkpt lat="42.70405" lon="-0.064">
        <ele>2271</ele>
        <time>2013-06-07T05:03:17Z</time>
      </trkpt>
      <trkpt lat="42.70403" lon="-0.06405">
        <ele>2271</ele>
        <time>2013-06-07T05:03:22Z</time>
      </trkpt>
      <trkpt lat="42.70401" lon="-0.06413">
        <ele>2272</ele>
        <time>2013-06-07T05:03:29Z</time>
      </trkpt>
      <trkpt lat="42.704" lon="-0.06418">
        <ele>2272</ele>
        <time>2013-06-07T05:03:33Z</time>
      </trkpt>
      <trkpt lat="42.70399" lon="-0.06422">
        <ele>2272</ele>
        <time>2013-06-07T05:03:37Z</time>
      </trkpt>
      <trkpt lat="42.70399" lon="-0.06425">
        <ele>2272</ele>
        <time>2013-06-07T05:03:39Z</time>
      </trkpt>
      <trkpt lat="42.70399" lon="-0.06426">
        <ele>2272</ele>
        <time>2013-06-07T05:03:40Z</time>
      </trkpt>
      <trkpt lat="42.70398" lon="-0.06429">
        <ele>2272</ele>
        <time>2013-06-07T05:03:48Z</time>
      </trkpt>
      <trkpt lat="42.70396" lon="-0.06432">
        <ele>2272</ele>
        <time>2013-06-07T05:03:52Z</time>
      </trkpt>
      <trkpt lat="42.70392" lon="-0.06436">
        <ele>2272</ele>
        <time>2013-06-07T05:03:58Z</time>
      </trkpt>
      <trkpt lat="42.70392" lon="-0.06435">
        <ele>2271</ele>
        <time>2013-06-07T05:04:05Z</time>
      </trkpt>
      <trkpt lat="42.70393" lon="-0.06433">
        <ele>2272</ele>
        <time>2013-06-07T05:04:10Z</time>
      </trkpt>
      <trkpt lat="42.70397" lon="-0.0643">
        <ele>2272</ele>
        <time>2013-06-07T05:04:16Z</time>
      </trkpt>
      <trkpt lat="42.70398" lon="-0.0643">
        <ele>2272</ele>
        <time>2013-06-07T05:04:22Z</time>
      </trkpt>
      <trkpt lat="42.70398" lon="-0.0643">
        <ele>2273</ele>
        <time>2013-06-07T05:04:35Z</time>
      </trkpt>
      <trkpt lat="42.704" lon="-0.06431">
        <ele>2272</ele>
        <time>2013-06-07T05:04:39Z</time>
      </trkpt>
      <trkpt lat="42.704" lon="-0.06431">
        <ele>2273</ele>
        <time>2013-06-07T05:04:48Z</time>
      </trkpt>
      <trkpt lat="42.70399" lon="-0.06431">
        <ele>2273</ele>
        <time>2013-06-07T05:04:54Z</time>
      </trkpt>
      <trkpt lat="42.70399" lon="-0.0643">
        <ele>2272</ele>
        <time>2013-06-07T05:05:11Z</time>
      </trkpt>
      <trkpt lat="42.70399" lon="-0.06431">
        <ele>2273</ele>
        <time>2013-06-07T05:05:25Z</time>
      </trkpt>
      <trkpt lat="42.704" lon="-0.06429">
        <ele>2273</ele>
        <time>2013-06-07T05:05:31Z</time>
      </trkpt>
      <trkpt lat="42.70399" lon="-0.06428">
        <ele>2272</ele>
        <time>2013-06-07T05:05:36Z</time>
      </trkpt>
      <trkpt lat="42.704" lon="-0.06422">
        <ele>2272</ele>
        <time>2013-06-07T05:05:41Z</time>
      </trkpt>
      <trkpt lat="42.70399" lon="-0.06417">
        <ele>2272</ele>
        <time>2013-06-07T05:05:47Z</time>
      </trkpt>
      <trkpt lat="42.70399" lon="-0.06415">
        <ele>2272</ele>
        <time>2013-06-07T05:05:50Z</time>
      </trkpt>
      <trkpt lat="42.70399" lon="-0.06413">
        <ele>2272</ele>
        <time>2013-06-07T05:05:52Z</time>
      </trkpt>
      <trkpt lat="42.70398" lon="-0.06408">
        <ele>2271</ele>
        <time>2013-06-07T05:05:56Z</time>
      </trkpt>
      <trkpt lat="42.70398" lon="-0.06406">
        <ele>2271</ele>
        <time>2013-06-07T05:06:02Z</time>
      </trkpt>
      <trkpt lat="42.70398" lon="-0.06404">
        <ele>2271</ele>
        <time>2013-06-07T05:06:09Z</time>
      </trkpt>
      <trkpt lat="42.70396" lon="-0.06399">
        <ele>2271</ele>
        <time>2013-06-07T05:06:14Z</time>
      </trkpt>
      <trkpt lat="42.70391" lon="-0.064">
        <ele>2272</ele>
        <time>2013-06-07T05:06:20Z</time>
      </trkpt>
      <trkpt lat="42.70385" lon="-0.06406">
        <ele>2273</ele>
        <time>2013-06-07T05:06:29Z</time>
      </trkpt>
      <trkpt lat="42.70381" lon="-0.06408">
        <ele>2275</ele>
        <time>2013-06-07T05:06:36Z</time>
      </trkpt>
      <trkpt lat="42.70377" lon="-0.06411">
        <ele>2276</ele>
        <time>2013-06-07T05:06:43Z</time>
      </trkpt>
      <trkpt lat="42.70373" lon="-0.06406">
        <ele>2277</ele>
        <time>2013-06-07T05:06:50Z</time>
      </trkpt>
      <trkpt lat="42.70372" lon="-0.06407">
        <ele>2277</ele>
        <time>2013-06-07T05:06:57Z</time>
      </trkpt>
      <trkpt lat="42.70371" lon="-0.06409">
        <ele>2277</ele>
        <time>2013-06-07T05:07:10Z</time>
      </trkpt>
      <trkpt lat="42.70371" lon="-0.06403">
        <ele>2277</ele>
        <time>2013-06-07T05:07:16Z</time>
      </trkpt>
      <trkpt lat="42.70368" lon="-0.06398">
        <ele>2278</ele>
        <time>2013-06-07T05:07:22Z</time>
      </trkpt>
      <trkpt lat="42.70366" lon="-0.06392">
        <ele>2280</ele>
        <time>2013-06-07T05:07:29Z</time>
      </trkpt>
      <trkpt lat="42.70365" lon="-0.06387">
        <ele>2281</ele>
        <time>2013-06-07T05:07:36Z</time>
      </trkpt>
      <trkpt lat="42.70362" lon="-0.06379">
        <ele>2284</ele>
        <time>2013-06-07T05:07:45Z</time>
      </trkpt>
      <trkpt lat="42.7036" lon="-0.06373">
        <ele>2284</ele>
        <time>2013-06-07T05:07:53Z</time>
      </trkpt>
      <trkpt lat="42.7036" lon="-0.0637">
        <ele>2285</ele>
        <time>2013-06-07T05:07:56Z</time>
      </trkpt>
      <trkpt lat="42.70357" lon="-0.06367">
        <ele>2286</ele>
        <time>2013-06-07T05:08:03Z</time>
      </trkpt>
      <trkpt lat="42.70356" lon="-0.06362">
        <ele>2287</ele>
        <time>2013-06-07T05:08:09Z</time>
      </trkpt>
      <trkpt lat="42.70356" lon="-0.0636">
        <ele>2286</ele>
        <time>2013-06-07T05:08:10Z</time>
      </trkpt>
      <trkpt lat="42.70355" lon="-0.06354">
        <ele>2288</ele>
        <time>2013-06-07T05:08:17Z</time>
      </trkpt>
      <trkpt lat="42.70353" lon="-0.06348">
        <ele>2289</ele>
        <time>2013-06-07T05:08:24Z</time>
      </trkpt>
      <trkpt lat="42.70351" lon="-0.06343">
        <ele>2290</ele>
        <time>2013-06-07T05:08:32Z</time>
      </trkpt>
      <trkpt lat="42.7035" lon="-0.06335">
        <ele>2291</ele>
        <time>2013-06-07T05:08:40Z</time>
      </trkpt>
      <trkpt lat="42.70348" lon="-0.06329">
        <ele>2293</ele>
        <time>2013-06-07T05:08:49Z</time>
      </trkpt>
      <trkpt lat="42.70347" lon="-0.06319">
        <ele>2293</ele>
        <time>2013-06-07T05:08:56Z</time>
      </trkpt>
      <trkpt lat="42.70345" lon="-0.06312">
        <ele>2295</ele>
        <time>2013-06-07T05:09:04Z</time>
      </trkpt>
      <trkpt lat="42.70344" lon="-0.06308">
        <ele>2295</ele>
        <time>2013-06-07T05:09:11Z</time>
      </trkpt>
      <trkpt lat="42.70343" lon="-0.06304">
        <ele>2296</ele>
        <time>2013-06-07T05:09:18Z</time>
      </trkpt>
      <trkpt lat="42.70344" lon="-0.06303">
        <ele>2296</ele>
        <time>2013-06-07T05:09:26Z</time>
      </trkpt>
      <trkpt lat="42.70343" lon="-0.06303">
        <ele>2295</ele>
        <time>2013-06-07T05:09:38Z</time>
      </trkpt>
      <trkpt lat="42.70342" lon="-0.06298">
        <ele>2296</ele>
        <time>2013-06-07T05:09:44Z</time>
      </trkpt>
      <trkpt lat="42.70343" lon="-0.06293">
        <ele>2298</ele>
        <time>2013-06-07T05:09:52Z</time>
      </trkpt>
      <trkpt lat="42.70345" lon="-0.06284">
        <ele>2298</ele>
        <time>2013-06-07T05:09:59Z</time>
      </trkpt>
      <trkpt lat="42.70346" lon="-0.06277">
        <ele>2298</ele>
        <time>2013-06-07T05:10:05Z</time>
      </trkpt>
      <trkpt lat="42.70346" lon="-0.06275">
        <ele>2298</ele>
        <time>2013-06-07T05:10:06Z</time>
      </trkpt>
      <trkpt lat="42.70347" lon="-0.06268">
        <ele>2299</ele>
        <time>2013-06-07T05:10:13Z</time>
      </trkpt>
      <trkpt lat="42.70347" lon="-0.06259">
        <ele>2302</ele>
        <time>2013-06-07T05:10:21Z</time>
      </trkpt>
      <trkpt lat="42.70346" lon="-0.06251">
        <ele>2302</ele>
        <time>2013-06-07T05:10:30Z</time>
      </trkpt>
      <trkpt lat="42.70346" lon="-0.0624">
        <ele>2303</ele>
        <time>2013-06-07T05:10:38Z</time>
      </trkpt>
      <trkpt lat="42.70345" lon="-0.06231">
        <ele>2304</ele>
        <time>2013-06-07T05:10:46Z</time>
      </trkpt>
      <trkpt lat="42.70345" lon="-0.06223">
        <ele>2306</ele>
        <time>2013-06-07T05:10:54Z</time>
      </trkpt>
      <trkpt lat="42.70342" lon="-0.06212">
        <ele>2307</ele>
        <time>2013-06-07T05:11:04Z</time>
      </trkpt>
      <trkpt lat="42.70339" lon="-0.06202">
        <ele>2308</ele>
        <time>2013-06-07T05:11:13Z</time>
      </trkpt>
      <trkpt lat="42.70335" lon="-0.06193">
        <ele>2309</ele>
        <time>2013-06-07T05:11:22Z</time>
      </trkpt>
      <trkpt lat="42.70334" lon="-0.06186">
        <ele>2311</ele>
        <time>2013-06-07T05:11:30Z</time>
      </trkpt>
      <trkpt lat="42.70333" lon="-0.06181">
        <ele>2312</ele>
        <time>2013-06-07T05:11:35Z</time>
      </trkpt>
      <trkpt lat="42.70331" lon="-0.06172">
        <ele>2313</ele>
        <time>2013-06-07T05:11:43Z</time>
      </trkpt>
      <trkpt lat="42.7033" lon="-0.06162">
        <ele>2314</ele>
        <time>2013-06-07T05:11:52Z</time>
      </trkpt>
      <trkpt lat="42.70328" lon="-0.06152">
        <ele>2315</ele>
        <time>2013-06-07T05:12:01Z</time>
      </trkpt>
      <trkpt lat="42.70327" lon="-0.06141">
        <ele>2316</ele>
        <time>2013-06-07T05:12:11Z</time>
      </trkpt>
      <trkpt lat="42.70327" lon="-0.0613">
        <ele>2317</ele>
        <time>2013-06-07T05:12:20Z</time>
      </trkpt>
      <trkpt lat="42.70326" lon="-0.06117">
        <ele>2318</ele>
        <time>2013-06-07T05:12:29Z</time>
      </trkpt>
      <trkpt lat="42.70324" lon="-0.06105">
        <ele>2319</ele>
        <time>2013-06-07T05:12:39Z</time>
      </trkpt>
      <trkpt lat="42.70323" lon="-0.06092">
        <ele>2319</ele>
        <time>2013-06-07T05:12:48Z</time>
      </trkpt>
      <trkpt lat="42.70321" lon="-0.06079">
        <ele>2322</ele>
        <time>2013-06-07T05:12:58Z</time>
      </trkpt>
      <trkpt lat="42.7032" lon="-0.06066">
        <ele>2322</ele>
        <time>2013-06-07T05:13:07Z</time>
      </trkpt>
      <trkpt lat="42.70319" lon="-0.06054">
        <ele>2323</ele>
        <time>2013-06-07T05:13:15Z</time>
      </trkpt>
      <trkpt lat="42.70321" lon="-0.0604">
        <ele>2324</ele>
        <time>2013-06-07T05:13:24Z</time>
      </trkpt>
      <trkpt lat="42.70319" lon="-0.06027">
        <ele>2324</ele>
        <time>2013-06-07T05:13:32Z</time>
      </trkpt>
      <trkpt lat="42.70317" lon="-0.06011">
        <ele>2324</ele>
        <time>2013-06-07T05:13:42Z</time>
      </trkpt>
      <trkpt lat="42.70316" lon="-0.05999">
        <ele>2325</ele>
        <time>2013-06-07T05:13:50Z</time>
      </trkpt>
      <trkpt lat="42.70312" lon="-0.05985">
        <ele>2325</ele>
        <time>2013-06-07T05:13:58Z</time>
      </trkpt>
      <trkpt lat="42.7031" lon="-0.05973">
        <ele>2325</ele>
        <time>2013-06-07T05:14:06Z</time>
      </trkpt>
      <trkpt lat="42.70308" lon="-0.05961">
        <ele>2325</ele>
        <time>2013-06-07T05:14:14Z</time>
      </trkpt>
      <trkpt lat="42.70304" lon="-0.05949">
        <ele>2325</ele>
        <time>2013-06-07T05:14:22Z</time>
      </trkpt>
      <trkpt lat="42.70301" lon="-0.05934">
        <ele>2323</ele>
        <time>2013-06-07T05:14:30Z</time>
      </trkpt>
      <trkpt lat="42.70299" lon="-0.05918">
        <ele>2323</ele>
        <time>2013-06-07T05:14:39Z</time>
      </trkpt>
      <trkpt lat="42.70296" lon="-0.05906">
        <ele>2323</ele>
        <time>2013-06-07T05:14:46Z</time>
      </trkpt>
      <trkpt lat="42.70295" lon="-0.05893">
        <ele>2323</ele>
        <time>2013-06-07T05:14:53Z</time>
      </trkpt>
      <trkpt lat="42.70294" lon="-0.0588">
        <ele>2322</ele>
        <time>2013-06-07T05:15:01Z</time>
      </trkpt>
      <trkpt lat="42.70292" lon="-0.05868">
        <ele>2322</ele>
        <time>2013-06-07T05:15:08Z</time>
      </trkpt>
      <trkpt lat="42.7029" lon="-0.05852">
        <ele>2322</ele>
        <time>2013-06-07T05:15:17Z</time>
      </trkpt>
      <trkpt lat="42.70288" lon="-0.05839">
        <ele>2322</ele>
        <time>2013-06-07T05:15:24Z</time>
      </trkpt>
      <trkpt lat="42.70283" lon="-0.05823">
        <ele>2321</ele>
        <time>2013-06-07T05:15:33Z</time>
      </trkpt>
      <trkpt lat="42.70281" lon="-0.05809">
        <ele>2321</ele>
        <time>2013-06-07T05:15:40Z</time>
      </trkpt>
      <trkpt lat="42.7028" lon="-0.05807">
        <ele>2320</ele>
        <time>2013-06-07T05:15:41Z</time>
      </trkpt>
      <trkpt lat="42.70277" lon="-0.05791">
        <ele>2319</ele>
        <time>2013-06-07T05:15:50Z</time>
      </trkpt>
      <trkpt lat="42.70274" lon="-0.05777">
        <ele>2319</ele>
        <time>2013-06-07T05:15:58Z</time>
      </trkpt>
      <trkpt lat="42.70271" lon="-0.05767">
        <ele>2318</ele>
        <time>2013-06-07T05:16:03Z</time>
      </trkpt>
      <trkpt lat="42.70269" lon="-0.05752">
        <ele>2317</ele>
        <time>2013-06-07T05:16:11Z</time>
      </trkpt>
      <trkpt lat="42.70266" lon="-0.05738">
        <ele>2318</ele>
        <time>2013-06-07T05:16:20Z</time>
      </trkpt>
      <trkpt lat="42.70263" lon="-0.05724">
        <ele>2317</ele>
        <time>2013-06-07T05:16:28Z</time>
      </trkpt>
      <trkpt lat="42.70263" lon="-0.05707">
        <ele>2317</ele>
        <time>2013-06-07T05:16:37Z</time>
      </trkpt>
      <trkpt lat="42.7026" lon="-0.05693">
        <ele>2317</ele>
        <time>2013-06-07T05:16:46Z</time>
      </trkpt>
      <trkpt lat="42.70257" lon="-0.05678">
        <ele>2318</ele>
        <time>2013-06-07T05:16:56Z</time>
      </trkpt>
      <trkpt lat="42.70254" lon="-0.05664">
        <ele>2317</ele>
        <time>2013-06-07T05:17:04Z</time>
      </trkpt>
      <trkpt lat="42.70252" lon="-0.05651">
        <ele>2317</ele>
        <time>2013-06-07T05:17:12Z</time>
      </trkpt>
      <trkpt lat="42.70249" lon="-0.05635">
        <ele>2317</ele>
        <time>2013-06-07T05:17:21Z</time>
      </trkpt>
      <trkpt lat="42.70247" lon="-0.05618">
        <ele>2317</ele>
        <time>2013-06-07T05:17:30Z</time>
      </trkpt>
      <trkpt lat="42.70244" lon="-0.05604">
        <ele>2315</ele>
        <time>2013-06-07T05:17:37Z</time>
      </trkpt>
      <trkpt lat="42.70243" lon="-0.05588">
        <ele>2314</ele>
        <time>2013-06-07T05:17:46Z</time>
      </trkpt>
      <trkpt lat="42.70242" lon="-0.05578">
        <ele>2314</ele>
        <time>2013-06-07T05:17:54Z</time>
      </trkpt>
      <trkpt lat="42.70241" lon="-0.05559">
        <ele>2315</ele>
        <time>2013-06-07T05:18:03Z</time>
      </trkpt>
      <trkpt lat="42.70239" lon="-0.05543">
        <ele>2314</ele>
        <time>2013-06-07T05:18:12Z</time>
      </trkpt>
      <trkpt lat="42.70237" lon="-0.05529">
        <ele>2314</ele>
        <time>2013-06-07T05:18:20Z</time>
      </trkpt>
      <trkpt lat="42.70235" lon="-0.05515">
        <ele>2314</ele>
        <time>2013-06-07T05:18:29Z</time>
      </trkpt>
      <trkpt lat="42.70234" lon="-0.055">
        <ele>2314</ele>
        <time>2013-06-07T05:18:38Z</time>
      </trkpt>
      <trkpt lat="42.70232" lon="-0.05487">
        <ele>2314</ele>
        <time>2013-06-07T05:18:46Z</time>
      </trkpt>
      <trkpt lat="42.70229" lon="-0.05474">
        <ele>2314</ele>
        <time>2013-06-07T05:18:54Z</time>
      </trkpt>
      <trkpt lat="42.70227" lon="-0.05459">
        <ele>2315</ele>
        <time>2013-06-07T05:19:03Z</time>
      </trkpt>
      <trkpt lat="42.70224" lon="-0.05448">
        <ele>2316</ele>
        <time>2013-06-07T05:19:11Z</time>
      </trkpt>
      <trkpt lat="42.70222" lon="-0.05436">
        <ele>2316</ele>
        <time>2013-06-07T05:19:19Z</time>
      </trkpt>
      <trkpt lat="42.70219" lon="-0.05423">
        <ele>2317</ele>
        <time>2013-06-07T05:19:28Z</time>
      </trkpt>
      <trkpt lat="42.70218" lon="-0.05408">
        <ele>2318</ele>
        <time>2013-06-07T05:19:37Z</time>
      </trkpt>
      <trkpt lat="42.70216" lon="-0.05395">
        <ele>2319</ele>
        <time>2013-06-07T05:19:45Z</time>
      </trkpt>
      <trkpt lat="42.70216" lon="-0.0538">
        <ele>2321</ele>
        <time>2013-06-07T05:19:55Z</time>
      </trkpt>
      <trkpt lat="42.70214" lon="-0.05367">
        <ele>2321</ele>
        <time>2013-06-07T05:20:03Z</time>
      </trkpt>
      <trkpt lat="42.70214" lon="-0.05358">
        <ele>2322</ele>
        <time>2013-06-07T05:20:09Z</time>
      </trkpt>
      <trkpt lat="42.70214" lon="-0.05354">
        <ele>2322</ele>
        <time>2013-06-07T05:20:13Z</time>
      </trkpt>
      <trkpt lat="42.70213" lon="-0.05341">
        <ele>2323</ele>
        <time>2013-06-07T05:20:22Z</time>
      </trkpt>
      <trkpt lat="42.70212" lon="-0.05329">
        <ele>2323</ele>
        <time>2013-06-07T05:20:30Z</time>
      </trkpt>
      <trkpt lat="42.7021" lon="-0.05317">
        <ele>2323</ele>
        <time>2013-06-07T05:20:38Z</time>
      </trkpt>
      <trkpt lat="42.70209" lon="-0.05303">
        <ele>2323</ele>
        <time>2013-06-07T05:20:46Z</time>
      </trkpt>
      <trkpt lat="42.70207" lon="-0.05288">
        <ele>2323</ele>
        <time>2013-06-07T05:20:55Z</time>
      </trkpt>
      <trkpt lat="42.70203" lon="-0.05277">
        <ele>2324</ele>
        <time>2013-06-07T05:21:04Z</time>
      </trkpt>
      <trkpt lat="42.70203" lon="-0.05271">
        <ele>2324</ele>
        <time>2013-06-07T05:21:08Z</time>
      </trkpt>
      <trkpt lat="42.70201" lon="-0.05261">
        <ele>2324</ele>
        <time>2013-06-07T05:21:17Z</time>
      </trkpt>
      <trkpt lat="42.702" lon="-0.0525">
        <ele>2325</ele>
        <time>2013-06-07T05:21:25Z</time>
      </trkpt>
      <trkpt lat="42.70199" lon="-0.05241">
        <ele>2326</ele>
        <time>2013-06-07T05:21:33Z</time>
      </trkpt>
      <trkpt lat="42.70197" lon="-0.05232">
        <ele>2327</ele>
        <time>2013-06-07T05:21:40Z</time>
      </trkpt>
      <trkpt lat="42.70197" lon="-0.05223">
        <ele>2327</ele>
        <time>2013-06-07T05:21:48Z</time>
      </trkpt>
      <trkpt lat="42.70198" lon="-0.05213">
        <ele>2329</ele>
        <time>2013-06-07T05:21:56Z</time>
      </trkpt>
      <trkpt lat="42.70197" lon="-0.05204">
        <ele>2329</ele>
        <time>2013-06-07T05:22:04Z</time>
      </trkpt>
      <trkpt lat="42.70197" lon="-0.052">
        <ele>2329</ele>
        <time>2013-06-07T05:22:08Z</time>
      </trkpt>
      <trkpt lat="42.70197" lon="-0.0519">
        <ele>2331</ele>
        <time>2013-06-07T05:22:17Z</time>
      </trkpt>
      <trkpt lat="42.70197" lon="-0.05179">
        <ele>2332</ele>
        <time>2013-06-07T05:22:27Z</time>
      </trkpt>
      <trkpt lat="42.70197" lon="-0.05169">
        <ele>2334</ele>
        <time>2013-06-07T05:22:35Z</time>
      </trkpt>
      <trkpt lat="42.70197" lon="-0.05161">
        <ele>2334</ele>
        <time>2013-06-07T05:22:42Z</time>
      </trkpt>
      <trkpt lat="42.70196" lon="-0.0515">
        <ele>2336</ele>
        <time>2013-06-07T05:22:51Z</time>
      </trkpt>
      <trkpt lat="42.70194" lon="-0.05139">
        <ele>2336</ele>
        <time>2013-06-07T05:22:59Z</time>
      </trkpt>
      <trkpt lat="42.70192" lon="-0.05127">
        <ele>2337</ele>
        <time>2013-06-07T05:23:07Z</time>
      </trkpt>
      <trkpt lat="42.7019" lon="-0.05119">
        <ele>2338</ele>
        <time>2013-06-07T05:23:14Z</time>
      </trkpt>
      <trkpt lat="42.70188" lon="-0.05109">
        <ele>2339</ele>
        <time>2013-06-07T05:23:22Z</time>
      </trkpt>
      <trkpt lat="42.70187" lon="-0.05098">
        <ele>2339</ele>
        <time>2013-06-07T05:23:30Z</time>
      </trkpt>
      <trkpt lat="42.70184" lon="-0.05086">
        <ele>2341</ele>
        <time>2013-06-07T05:23:40Z</time>
      </trkpt>
      <trkpt lat="42.70183" lon="-0.05077">
        <ele>2341</ele>
        <time>2013-06-07T05:23:48Z</time>
      </trkpt>
      <trkpt lat="42.7018" lon="-0.05068">
        <ele>2342</ele>
        <time>2013-06-07T05:23:56Z</time>
      </trkpt>
      <trkpt lat="42.70181" lon="-0.05058">
        <ele>2344</ele>
        <time>2013-06-07T05:24:05Z</time>
      </trkpt>
      <trkpt lat="42.70181" lon="-0.05048">
        <ele>2345</ele>
        <time>2013-06-07T05:24:13Z</time>
      </trkpt>
      <trkpt lat="42.70181" lon="-0.05037">
        <ele>2346</ele>
        <time>2013-06-07T05:24:21Z</time>
      </trkpt>
      <trkpt lat="42.70181" lon="-0.05027">
        <ele>2347</ele>
        <time>2013-06-07T05:24:29Z</time>
      </trkpt>
      <trkpt lat="42.70181" lon="-0.05018">
        <ele>2348</ele>
        <time>2013-06-07T05:24:36Z</time>
      </trkpt>
      <trkpt lat="42.70182" lon="-0.05006">
        <ele>2348</ele>
        <time>2013-06-07T05:24:45Z</time>
      </trkpt>
      <trkpt lat="42.70181" lon="-0.04996">
        <ele>2349</ele>
        <time>2013-06-07T05:24:52Z</time>
      </trkpt>
      <trkpt lat="42.70181" lon="-0.04985">
        <ele>2350</ele>
        <time>2013-06-07T05:25:00Z</time>
      </trkpt>
      <trkpt lat="42.7018" lon="-0.04973">
        <ele>2352</ele>
        <time>2013-06-07T05:25:09Z</time>
      </trkpt>
      <trkpt lat="42.70179" lon="-0.04958">
        <ele>2352</ele>
        <time>2013-06-07T05:25:20Z</time>
      </trkpt>
      <trkpt lat="42.70177" lon="-0.04945">
        <ele>2352</ele>
        <time>2013-06-07T05:25:28Z</time>
      </trkpt>
      <trkpt lat="42.70177" lon="-0.04935">
        <ele>2352</ele>
        <time>2013-06-07T05:25:37Z</time>
      </trkpt>
      <trkpt lat="42.70175" lon="-0.04924">
        <ele>2353</ele>
        <time>2013-06-07T05:25:46Z</time>
      </trkpt>
      <trkpt lat="42.70174" lon="-0.04915">
        <ele>2355</ele>
        <time>2013-06-07T05:25:54Z</time>
      </trkpt>
      <trkpt lat="42.70172" lon="-0.04905">
        <ele>2355</ele>
        <time>2013-06-07T05:26:02Z</time>
      </trkpt>
      <trkpt lat="42.70172" lon="-0.04897">
        <ele>2357</ele>
        <time>2013-06-07T05:26:09Z</time>
      </trkpt>
      <trkpt lat="42.70172" lon="-0.04885">
        <ele>2358</ele>
        <time>2013-06-07T05:26:18Z</time>
      </trkpt>
      <trkpt lat="42.70172" lon="-0.04875">
        <ele>2359</ele>
        <time>2013-06-07T05:26:27Z</time>
      </trkpt>
      <trkpt lat="42.70174" lon="-0.04863">
        <ele>2361</ele>
        <time>2013-06-07T05:26:36Z</time>
      </trkpt>
      <trkpt lat="42.70174" lon="-0.04854">
        <ele>2363</ele>
        <time>2013-06-07T05:26:44Z</time>
      </trkpt>
      <trkpt lat="42.70174" lon="-0.04844">
        <ele>2363</ele>
        <time>2013-06-07T05:26:52Z</time>
      </trkpt>
      <trkpt lat="42.70174" lon="-0.04834">
        <ele>2364</ele>
        <time>2013-06-07T05:26:59Z</time>
      </trkpt>
      <trkpt lat="42.70174" lon="-0.04822">
        <ele>2363</ele>
        <time>2013-06-07T05:27:08Z</time>
      </trkpt>
      <trkpt lat="42.70173" lon="-0.04811">
        <ele>2362</ele>
        <time>2013-06-07T05:27:13Z</time>
      </trkpt>
      <trkpt lat="42.70173" lon="-0.04805">
        <ele>2362</ele>
        <time>2013-06-07T05:27:21Z</time>
      </trkpt>
      <trkpt lat="42.70172" lon="-0.04799">
        <ele>2361</ele>
        <time>2013-06-07T05:27:26Z</time>
      </trkpt>
      <trkpt lat="42.70171" lon="-0.04789">
        <ele>2361</ele>
        <time>2013-06-07T05:27:33Z</time>
      </trkpt>
      <trkpt lat="42.70171" lon="-0.04786">
        <ele>2361</ele>
        <time>2013-06-07T05:27:35Z</time>
      </trkpt>
      <trkpt lat="42.70173" lon="-0.04774">
        <ele>2362</ele>
        <time>2013-06-07T05:27:43Z</time>
      </trkpt>
      <trkpt lat="42.70173" lon="-0.04767">
        <ele>2363</ele>
        <time>2013-06-07T05:27:52Z</time>
      </trkpt>
      <trkpt lat="42.70173" lon="-0.04765">
        <ele>2363</ele>
        <time>2013-06-07T05:28:01Z</time>
      </trkpt>
      <trkpt lat="42.70172" lon="-0.04762">
        <ele>2363</ele>
        <time>2013-06-07T05:28:03Z</time>
      </trkpt>
      <trkpt lat="42.70169" lon="-0.04757">
        <ele>2364</ele>
        <time>2013-06-07T05:28:11Z</time>
      </trkpt>
      <trkpt lat="42.7017" lon="-0.04761">
        <ele>2364</ele>
        <time>2013-06-07T05:28:22Z</time>
      </trkpt>
      <trkpt lat="42.70169" lon="-0.04758">
        <ele>2365</ele>
        <time>2013-06-07T05:28:35Z</time>
      </trkpt>
      <trkpt lat="42.70167" lon="-0.04759">
        <ele>2365</ele>
        <time>2013-06-07T05:28:50Z</time>
      </trkpt>
      <trkpt lat="42.70167" lon="-0.04754">
        <ele>2365</ele>
        <time>2013-06-07T05:29:04Z</time>
      </trkpt>
      <trkpt lat="42.70165" lon="-0.04744">
        <ele>2366</ele>
        <time>2013-06-07T05:29:12Z</time>
      </trkpt>
      <trkpt lat="42.70163" lon="-0.04733">
        <ele>2365</ele>
        <time>2013-06-07T05:29:20Z</time>
      </trkpt>
      <trkpt lat="42.70162" lon="-0.04723">
        <ele>2365</ele>
        <time>2013-06-07T05:29:27Z</time>
      </trkpt>
      <trkpt lat="42.7016" lon="-0.04712">
        <ele>2367</ele>
        <time>2013-06-07T05:29:35Z</time>
      </trkpt>
      <trkpt lat="42.70159" lon="-0.047">
        <ele>2367</ele>
        <time>2013-06-07T05:29:43Z</time>
      </trkpt>
      <trkpt lat="42.70157" lon="-0.04689">
        <ele>2367</ele>
        <time>2013-06-07T05:29:51Z</time>
      </trkpt>
      <trkpt lat="42.70155" lon="-0.0468">
        <ele>2367</ele>
        <time>2013-06-07T05:29:58Z</time>
      </trkpt>
      <trkpt lat="42.70154" lon="-0.04676">
        <ele>2368</ele>
        <time>2013-06-07T05:30:01Z</time>
      </trkpt>
      <trkpt lat="42.70153" lon="-0.04665">
        <ele>2368</ele>
        <time>2013-06-07T05:30:09Z</time>
      </trkpt>
      <trkpt lat="42.70151" lon="-0.04657">
        <ele>2369</ele>
        <time>2013-06-07T05:30:16Z</time>
      </trkpt>
      <trkpt lat="42.70149" lon="-0.04647">
        <ele>2370</ele>
        <time>2013-06-07T05:30:25Z</time>
      </trkpt>
      <trkpt lat="42.70148" lon="-0.04635">
        <ele>2371</ele>
        <time>2013-06-07T05:30:35Z</time>
      </trkpt>
      <trkpt lat="42.70148" lon="-0.04625">
        <ele>2372</ele>
        <time>2013-06-07T05:30:43Z</time>
      </trkpt>
      <trkpt lat="42.70147" lon="-0.04615">
        <ele>2374</ele>
        <time>2013-06-07T05:30:52Z</time>
      </trkpt>
      <trkpt lat="42.70147" lon="-0.04605">
        <ele>2376</ele>
        <time>2013-06-07T05:31:00Z</time>
      </trkpt>
      <trkpt lat="42.70146" lon="-0.04593">
        <ele>2377</ele>
        <time>2013-06-07T05:31:09Z</time>
      </trkpt>
      <trkpt lat="42.70146" lon="-0.04583">
        <ele>2378</ele>
        <time>2013-06-07T05:31:17Z</time>
      </trkpt>
      <trkpt lat="42.70142" lon="-0.04571">
        <ele>2377</ele>
        <time>2013-06-07T05:31:25Z</time>
      </trkpt>
      <trkpt lat="42.7014" lon="-0.04559">
        <ele>2378</ele>
        <time>2013-06-07T05:31:33Z</time>
      </trkpt>
      <trkpt lat="42.70137" lon="-0.04547">
        <ele>2379</ele>
        <time>2013-06-07T05:31:42Z</time>
      </trkpt>
      <trkpt lat="42.70137" lon="-0.04537">
        <ele>2379</ele>
        <time>2013-06-07T05:31:49Z</time>
      </trkpt>
      <trkpt lat="42.70138" lon="-0.04525">
        <ele>2380</ele>
        <time>2013-06-07T05:31:57Z</time>
      </trkpt>
      <trkpt lat="42.70135" lon="-0.04515">
        <ele>2381</ele>
        <time>2013-06-07T05:32:06Z</time>
      </trkpt>
      <trkpt lat="42.70134" lon="-0.04505">
        <ele>2382</ele>
        <time>2013-06-07T05:32:14Z</time>
      </trkpt>
      <trkpt lat="42.70133" lon="-0.04494">
        <ele>2383</ele>
        <time>2013-06-07T05:32:23Z</time>
      </trkpt>
      <trkpt lat="42.70132" lon="-0.04483">
        <ele>2384</ele>
        <time>2013-06-07T05:32:31Z</time>
      </trkpt>
      <trkpt lat="42.7013" lon="-0.04473">
        <ele>2385</ele>
        <time>2013-06-07T05:32:39Z</time>
      </trkpt>
      <trkpt lat="42.7013" lon="-0.04471">
        <ele>2387</ele>
        <time>2013-06-07T05:32:46Z</time>
      </trkpt>
      <trkpt lat="42.7013" lon="-0.04471">
        <ele>2385</ele>
        <time>2013-06-07T05:32:50Z</time>
      </trkpt>
      <trkpt lat="42.7013" lon="-0.04469">
        <ele>2386</ele>
        <time>2013-06-07T05:32:53Z</time>
      </trkpt>
      <trkpt lat="42.70128" lon="-0.04458">
        <ele>2386</ele>
        <time>2013-06-07T05:33:01Z</time>
      </trkpt>
      <trkpt lat="42.70127" lon="-0.04446">
        <ele>2386</ele>
        <time>2013-06-07T05:33:10Z</time>
      </trkpt>
      <trkpt lat="42.70125" lon="-0.0444">
        <ele>2386</ele>
        <time>2013-06-07T05:33:15Z</time>
      </trkpt>
      <trkpt lat="42.70122" lon="-0.04426">
        <ele>2386</ele>
        <time>2013-06-07T05:33:24Z</time>
      </trkpt>
      <trkpt lat="42.70119" lon="-0.04414">
        <ele>2386</ele>
        <time>2013-06-07T05:33:32Z</time>
      </trkpt>
      <trkpt lat="42.70116" lon="-0.044">
        <ele>2385</ele>
        <time>2013-06-07T05:33:42Z</time>
      </trkpt>
      <trkpt lat="42.70113" lon="-0.04389">
        <ele>2385</ele>
        <time>2013-06-07T05:33:51Z</time>
      </trkpt>
      <trkpt lat="42.70109" lon="-0.04377">
        <ele>2385</ele>
        <time>2013-06-07T05:33:59Z</time>
      </trkpt>
      <trkpt lat="42.70106" lon="-0.04366">
        <ele>2386</ele>
        <time>2013-06-07T05:34:07Z</time>
      </trkpt>
      <trkpt lat="42.70105" lon="-0.04362">
        <ele>2386</ele>
        <time>2013-06-07T05:34:10Z</time>
      </trkpt>
      <trkpt lat="42.70102" lon="-0.04347">
        <ele>2386</ele>
        <time>2013-06-07T05:34:20Z</time>
      </trkpt>
      <trkpt lat="42.70102" lon="-0.04339">
        <ele>2386</ele>
        <time>2013-06-07T05:34:25Z</time>
      </trkpt>
      <trkpt lat="42.70099" lon="-0.04327">
        <ele>2385</ele>
        <time>2013-06-07T05:34:34Z</time>
      </trkpt>
      <trkpt lat="42.70095" lon="-0.04312">
        <ele>2385</ele>
        <time>2013-06-07T05:34:45Z</time>
      </trkpt>
      <trkpt lat="42.70091" lon="-0.04301">
        <ele>2385</ele>
        <time>2013-06-07T05:34:54Z</time>
      </trkpt>
      <trkpt lat="42.70087" lon="-0.04289">
        <ele>2385</ele>
        <time>2013-06-07T05:35:03Z</time>
      </trkpt>
      <trkpt lat="42.70085" lon="-0.04281">
        <ele>2385</ele>
        <time>2013-06-07T05:35:08Z</time>
      </trkpt>
      <trkpt lat="42.70081" lon="-0.04271">
        <ele>2385</ele>
        <time>2013-06-07T05:35:17Z</time>
      </trkpt>
      <trkpt lat="42.70076" lon="-0.04265">
        <ele>2386</ele>
        <time>2013-06-07T05:35:25Z</time>
      </trkpt>
      <trkpt lat="42.70073" lon="-0.04253">
        <ele>2386</ele>
        <time>2013-06-07T05:35:34Z</time>
      </trkpt>
      <trkpt lat="42.70071" lon="-0.04243">
        <ele>2387</ele>
        <time>2013-06-07T05:35:42Z</time>
      </trkpt>
      <trkpt lat="42.70068" lon="-0.04234">
        <ele>2388</ele>
        <time>2013-06-07T05:35:50Z</time>
      </trkpt>
      <trkpt lat="42.70066" lon="-0.04225">
        <ele>2388</ele>
        <time>2013-06-07T05:35:59Z</time>
      </trkpt>
      <trkpt lat="42.70063" lon="-0.04215">
        <ele>2389</ele>
        <time>2013-06-07T05:36:08Z</time>
      </trkpt>
      <trkpt lat="42.70063" lon="-0.0421">
        <ele>2390</ele>
        <time>2013-06-07T05:36:12Z</time>
      </trkpt>
      <trkpt lat="42.70061" lon="-0.04199">
        <ele>2390</ele>
        <time>2013-06-07T05:36:22Z</time>
      </trkpt>
      <trkpt lat="42.70059" lon="-0.04189">
        <ele>2390</ele>
        <time>2013-06-07T05:36:33Z</time>
      </trkpt>
      <trkpt lat="42.70058" lon="-0.04178">
        <ele>2390</ele>
        <time>2013-06-07T05:36:41Z</time>
      </trkpt>
      <trkpt lat="42.70058" lon="-0.04169">
        <ele>2389</ele>
        <time>2013-06-07T05:36:50Z</time>
      </trkpt>
      <trkpt lat="42.70059" lon="-0.04159">
        <ele>2390</ele>
        <time>2013-06-07T05:36:58Z</time>
      </trkpt>
      <trkpt lat="42.7006" lon="-0.0415">
        <ele>2390</ele>
        <time>2013-06-07T05:37:06Z</time>
      </trkpt>
      <trkpt lat="42.70061" lon="-0.04139">
        <ele>2391</ele>
        <time>2013-06-07T05:37:15Z</time>
      </trkpt>
      <trkpt lat="42.70063" lon="-0.04129">
        <ele>2392</ele>
        <time>2013-06-07T05:37:26Z</time>
      </trkpt>
      <trkpt lat="42.70064" lon="-0.04118">
        <ele>2392</ele>
        <time>2013-06-07T05:37:37Z</time>
      </trkpt>
      <trkpt lat="42.70065" lon="-0.04106">
        <ele>2393</ele>
        <time>2013-06-07T05:37:49Z</time>
      </trkpt>
      <trkpt lat="42.70066" lon="-0.04099">
        <ele>2392</ele>
        <time>2013-06-07T05:37:56Z</time>
      </trkpt>
      <trkpt lat="42.70067" lon="-0.04092">
        <ele>2393</ele>
        <time>2013-06-07T05:38:03Z</time>
      </trkpt>
      <trkpt lat="42.70067" lon="-0.04087">
        <ele>2392</ele>
        <time>2013-06-07T05:38:09Z</time>
      </trkpt>
      <trkpt lat="42.70067" lon="-0.04082">
        <ele>2392</ele>
        <time>2013-06-07T05:38:15Z</time>
      </trkpt>
      <trkpt lat="42.70066" lon="-0.04076">
        <ele>2392</ele>
        <time>2013-06-07T05:38:22Z</time>
      </trkpt>
      <trkpt lat="42.70065" lon="-0.04067">
        <ele>2394</ele>
        <time>2013-06-07T05:38:32Z</time>
      </trkpt>
      <trkpt lat="42.70064" lon="-0.04056">
        <ele>2396</ele>
        <time>2013-06-07T05:38:43Z</time>
      </trkpt>
      <trkpt lat="42.70064" lon="-0.04044">
        <ele>2395</ele>
        <time>2013-06-07T05:38:55Z</time>
      </trkpt>
      <trkpt lat="42.70063" lon="-0.04036">
        <ele>2395</ele>
        <time>2013-06-07T05:39:03Z</time>
      </trkpt>
      <trkpt lat="42.70062" lon="-0.0403">
        <ele>2395</ele>
        <time>2013-06-07T05:39:09Z</time>
      </trkpt>
      <trkpt lat="42.70062" lon="-0.04024">
        <ele>2396</ele>
        <time>2013-06-07T05:39:19Z</time>
      </trkpt>
      <trkpt lat="42.7006" lon="-0.0402">
        <ele>2395</ele>
        <time>2013-06-07T05:39:33Z</time>
      </trkpt>
      <trkpt lat="42.70058" lon="-0.04011">
        <ele>2396</ele>
        <time>2013-06-07T05:39:41Z</time>
      </trkpt>
      <trkpt lat="42.70057" lon="-0.04003">
        <ele>2397</ele>
        <time>2013-06-07T05:39:49Z</time>
      </trkpt>
      <trkpt lat="42.70055" lon="-0.03995">
        <ele>2397</ele>
        <time>2013-06-07T05:39:58Z</time>
      </trkpt>
      <trkpt lat="42.70054" lon="-0.03985">
        <ele>2397</ele>
        <time>2013-06-07T05:40:06Z</time>
      </trkpt>
      <trkpt lat="42.70052" lon="-0.03978">
        <ele>2397</ele>
        <time>2013-06-07T05:40:14Z</time>
      </trkpt>
      <trkpt lat="42.70052" lon="-0.03972">
        <ele>2397</ele>
        <time>2013-06-07T05:40:21Z</time>
      </trkpt>
      <trkpt lat="42.70051" lon="-0.03966">
        <ele>2396</ele>
        <time>2013-06-07T05:40:27Z</time>
      </trkpt>
      <trkpt lat="42.7005" lon="-0.03956">
        <ele>2396</ele>
        <time>2013-06-07T05:40:36Z</time>
      </trkpt>
      <trkpt lat="42.70049" lon="-0.03947">
        <ele>2396</ele>
        <time>2013-06-07T05:40:43Z</time>
      </trkpt>
      <trkpt lat="42.70047" lon="-0.03934">
        <ele>2397</ele>
        <time>2013-06-07T05:40:54Z</time>
      </trkpt>
      <trkpt lat="42.70047" lon="-0.03926">
        <ele>2397</ele>
        <time>2013-06-07T05:41:01Z</time>
      </trkpt>
      <trkpt lat="42.70047" lon="-0.03915">
        <ele>2396</ele>
        <time>2013-06-07T05:41:11Z</time>
      </trkpt>
      <trkpt lat="42.70047" lon="-0.0391">
        <ele>2397</ele>
        <time>2013-06-07T05:41:15Z</time>
      </trkpt>
      <trkpt lat="42.70048" lon="-0.03904">
        <ele>2396</ele>
        <time>2013-06-07T05:41:22Z</time>
      </trkpt>
      <trkpt lat="42.70047" lon="-0.03897">
        <ele>2398</ele>
        <time>2013-06-07T05:41:31Z</time>
      </trkpt>
      <trkpt lat="42.70047" lon="-0.03892">
        <ele>2399</ele>
        <time>2013-06-07T05:41:40Z</time>
      </trkpt>
      <trkpt lat="42.70047" lon="-0.03885">
        <ele>2400</ele>
        <time>2013-06-07T05:41:46Z</time>
      </trkpt>
      <trkpt lat="42.70048" lon="-0.03878">
        <ele>2401</ele>
        <time>2013-06-07T05:41:53Z</time>
      </trkpt>
      <trkpt lat="42.70047" lon="-0.03872">
        <ele>2401</ele>
        <time>2013-06-07T05:42:01Z</time>
      </trkpt>
      <trkpt lat="42.70046" lon="-0.03872">
        <ele>2402</ele>
        <time>2013-06-07T05:42:08Z</time>
      </trkpt>
      <trkpt lat="42.70044" lon="-0.0387">
        <ele>2403</ele>
        <time>2013-06-07T05:42:25Z</time>
      </trkpt>
      <trkpt lat="42.70048" lon="-0.0387">
        <ele>2402</ele>
        <time>2013-06-07T05:42:36Z</time>
      </trkpt>
      <trkpt lat="42.70049" lon="-0.03864">
        <ele>2403</ele>
        <time>2013-06-07T05:42:44Z</time>
      </trkpt>
      <trkpt lat="42.70048" lon="-0.03856">
        <ele>2403</ele>
        <time>2013-06-07T05:42:52Z</time>
      </trkpt>
      <trkpt lat="42.70048" lon="-0.03851">
        <ele>2407</ele>
        <time>2013-06-07T05:43:02Z</time>
      </trkpt>
      <trkpt lat="42.70047" lon="-0.03841">
        <ele>2409</ele>
        <time>2013-06-07T05:43:13Z</time>
      </trkpt>
      <trkpt lat="42.70047" lon="-0.03835">
        <ele>2410</ele>
        <time>2013-06-07T05:43:21Z</time>
      </trkpt>
      <trkpt lat="42.70046" lon="-0.0383">
        <ele>2411</ele>
        <time>2013-06-07T05:43:30Z</time>
      </trkpt>
      <trkpt lat="42.70045" lon="-0.03824">
        <ele>2413</ele>
        <time>2013-06-07T05:43:38Z</time>
      </trkpt>
      <trkpt lat="42.70042" lon="-0.03817">
        <ele>2414</ele>
        <time>2013-06-07T05:43:47Z</time>
      </trkpt>
      <trkpt lat="42.70039" lon="-0.03812">
        <ele>2416</ele>
        <time>2013-06-07T05:43:58Z</time>
      </trkpt>
      <trkpt lat="42.70036" lon="-0.03811">
        <ele>2417</ele>
        <time>2013-06-07T05:44:04Z</time>
      </trkpt>
      <trkpt lat="42.70032" lon="-0.03809">
        <ele>2419</ele>
        <time>2013-06-07T05:44:12Z</time>
      </trkpt>
      <trkpt lat="42.7003" lon="-0.03809">
        <ele>2419</ele>
        <time>2013-06-07T05:44:21Z</time>
      </trkpt>
      <trkpt lat="42.70025" lon="-0.0381">
        <ele>2420</ele>
        <time>2013-06-07T05:44:30Z</time>
      </trkpt>
      <trkpt lat="42.70021" lon="-0.03811">
        <ele>2421</ele>
        <time>2013-06-07T05:44:41Z</time>
      </trkpt>
      <trkpt lat="42.70016" lon="-0.03806">
        <ele>2423</ele>
        <time>2013-06-07T05:44:51Z</time>
      </trkpt>
      <trkpt lat="42.70012" lon="-0.03801">
        <ele>2425</ele>
        <time>2013-06-07T05:45:01Z</time>
      </trkpt>
      <trkpt lat="42.70005" lon="-0.03796">
        <ele>2426</ele>
        <time>2013-06-07T05:45:12Z</time>
      </trkpt>
      <trkpt lat="42.7" lon="-0.03792">
        <ele>2428</ele>
        <time>2013-06-07T05:45:22Z</time>
      </trkpt>
      <trkpt lat="42.69996" lon="-0.03788">
        <ele>2429</ele>
        <time>2013-06-07T05:45:32Z</time>
      </trkpt>
      <trkpt lat="42.69991" lon="-0.03788">
        <ele>2431</ele>
        <time>2013-06-07T05:45:43Z</time>
      </trkpt>
      <trkpt lat="42.69988" lon="-0.03785">
        <ele>2432</ele>
        <time>2013-06-07T05:45:50Z</time>
      </trkpt>
      <trkpt lat="42.69987" lon="-0.03784">
        <ele>2432</ele>
        <time>2013-06-07T05:45:52Z</time>
      </trkpt>
      <trkpt lat="42.69981" lon="-0.03778">
        <ele>2434</ele>
        <time>2013-06-07T05:46:01Z</time>
      </trkpt>
      <trkpt lat="42.69977" lon="-0.03774">
        <ele>2435</ele>
        <time>2013-06-07T05:46:08Z</time>
      </trkpt>
      <trkpt lat="42.69972" lon="-0.03774">
        <ele>2438</ele>
        <time>2013-06-07T05:46:18Z</time>
      </trkpt>
      <trkpt lat="42.69969" lon="-0.03771">
        <ele>2438</ele>
        <time>2013-06-07T05:46:28Z</time>
      </trkpt>
      <trkpt lat="42.69966" lon="-0.03766">
        <ele>2439</ele>
        <time>2013-06-07T05:46:37Z</time>
      </trkpt>
      <trkpt lat="42.69962" lon="-0.03761">
        <ele>2440</ele>
        <time>2013-06-07T05:46:45Z</time>
      </trkpt>
      <trkpt lat="42.69959" lon="-0.03756">
        <ele>2442</ele>
        <time>2013-06-07T05:46:56Z</time>
      </trkpt>
      <trkpt lat="42.69955" lon="-0.03749">
        <ele>2444</ele>
        <time>2013-06-07T05:47:07Z</time>
      </trkpt>
      <trkpt lat="42.69952" lon="-0.03744">
        <ele>2446</ele>
        <time>2013-06-07T05:47:15Z</time>
      </trkpt>
      <trkpt lat="42.6995" lon="-0.03737">
        <ele>2447</ele>
        <time>2013-06-07T05:47:23Z</time>
      </trkpt>
      <trkpt lat="42.69947" lon="-0.03731">
        <ele>2450</ele>
        <time>2013-06-07T05:47:32Z</time>
      </trkpt>
      <trkpt lat="42.69945" lon="-0.03726">
        <ele>2451</ele>
        <time>2013-06-07T05:47:43Z</time>
      </trkpt>
      <trkpt lat="42.69945" lon="-0.0372">
        <ele>2454</ele>
        <time>2013-06-07T05:47:52Z</time>
      </trkpt>
      <trkpt lat="42.69942" lon="-0.03714">
        <ele>2456</ele>
        <time>2013-06-07T05:48:02Z</time>
      </trkpt>
      <trkpt lat="42.69939" lon="-0.03709">
        <ele>2457</ele>
        <time>2013-06-07T05:48:12Z</time>
      </trkpt>
      <trkpt lat="42.69935" lon="-0.037">
        <ele>2459</ele>
        <time>2013-06-07T05:48:22Z</time>
      </trkpt>
      <trkpt lat="42.69933" lon="-0.03693">
        <ele>2460</ele>
        <time>2013-06-07T05:48:30Z</time>
      </trkpt>
      <trkpt lat="42.69932" lon="-0.03687">
        <ele>2462</ele>
        <time>2013-06-07T05:48:37Z</time>
      </trkpt>
      <trkpt lat="42.69931" lon="-0.03682">
        <ele>2464</ele>
        <time>2013-06-07T05:48:47Z</time>
      </trkpt>
      <trkpt lat="42.6993" lon="-0.03674">
        <ele>2466</ele>
        <time>2013-06-07T05:48:58Z</time>
      </trkpt>
      <trkpt lat="42.6993" lon="-0.03666">
        <ele>2467</ele>
        <time>2013-06-07T05:49:06Z</time>
      </trkpt>
      <trkpt lat="42.69932" lon="-0.03659">
        <ele>2469</ele>
        <time>2013-06-07T05:49:16Z</time>
      </trkpt>
      <trkpt lat="42.69932" lon="-0.03647">
        <ele>2471</ele>
        <time>2013-06-07T05:49:24Z</time>
      </trkpt>
      <trkpt lat="42.69934" lon="-0.03645">
        <ele>2472</ele>
        <time>2013-06-07T05:49:32Z</time>
      </trkpt>
      <trkpt lat="42.69933" lon="-0.03647">
        <ele>2472</ele>
        <time>2013-06-07T05:49:40Z</time>
      </trkpt>
      <trkpt lat="42.69933" lon="-0.0365">
        <ele>2473</ele>
        <time>2013-06-07T05:49:49Z</time>
      </trkpt>
      <trkpt lat="42.69934" lon="-0.0365">
        <ele>2472</ele>
        <time>2013-06-07T05:50:03Z</time>
      </trkpt>
      <trkpt lat="42.69933" lon="-0.03649">
        <ele>2472</ele>
        <time>2013-06-07T05:50:15Z</time>
      </trkpt>
      <trkpt lat="42.69933" lon="-0.03652">
        <ele>2472</ele>
        <time>2013-06-07T05:50:25Z</time>
      </trkpt>
      <trkpt lat="42.69934" lon="-0.03653">
        <ele>2473</ele>
        <time>2013-06-07T05:50:30Z</time>
      </trkpt>
      <trkpt lat="42.69932" lon="-0.03655">
        <ele>2474</ele>
        <time>2013-06-07T05:50:36Z</time>
      </trkpt>
      <trkpt lat="42.69931" lon="-0.03654">
        <ele>2472</ele>
        <time>2013-06-07T05:50:38Z</time>
      </trkpt>
      <trkpt lat="42.69929" lon="-0.03653">
        <ele>2472</ele>
        <time>2013-06-07T05:50:47Z</time>
      </trkpt>
      <trkpt lat="42.69931" lon="-0.03652">
        <ele>2472</ele>
        <time>2013-06-07T05:50:54Z</time>
      </trkpt>
      <trkpt lat="42.69932" lon="-0.03651">
        <ele>2473</ele>
        <time>2013-06-07T05:51:06Z</time>
      </trkpt>
      <trkpt lat="42.69934" lon="-0.03648">
        <ele>2472</ele>
        <time>2013-06-07T05:51:20Z</time>
      </trkpt>
      <trkpt lat="42.69934" lon="-0.03646">
        <ele>2474</ele>
        <time>2013-06-07T05:51:37Z</time>
      </trkpt>
      <trkpt lat="42.69932" lon="-0.03647">
        <ele>2474</ele>
        <time>2013-06-07T05:51:52Z</time>
      </trkpt>
      <trkpt lat="42.69932" lon="-0.03645">
        <ele>2473</ele>
        <time>2013-06-07T05:52:07Z</time>
      </trkpt>
      <trkpt lat="42.69929" lon="-0.03645">
        <ele>2474</ele>
        <time>2013-06-07T05:52:21Z</time>
      </trkpt>
      <trkpt lat="42.69929" lon="-0.03644">
        <ele>2474</ele>
        <time>2013-06-07T05:52:34Z</time>
      </trkpt>
      <trkpt lat="42.69938" lon="-0.03658">
        <ele>2473</ele>
        <time>2013-06-07T05:52:44Z</time>
      </trkpt>
      <trkpt lat="42.6994" lon="-0.03655">
        <ele>2473</ele>
        <time>2013-06-07T05:53:00Z</time>
      </trkpt>
      <trkpt lat="42.6994" lon="-0.03652">
        <ele>2474</ele>
        <time>2013-06-07T05:53:10Z</time>
      </trkpt>
      <trkpt lat="42.69936" lon="-0.03652">
        <ele>2474</ele>
        <time>2013-06-07T05:53:22Z</time>
      </trkpt>
      <trkpt lat="42.69934" lon="-0.03648">
        <ele>2475</ele>
        <time>2013-06-07T05:53:36Z</time>
      </trkpt>
      <trkpt lat="42.69934" lon="-0.03654">
        <ele>2475</ele>
        <time>2013-06-07T05:53:51Z</time>
      </trkpt>
      <trkpt lat="42.69933" lon="-0.03655">
        <ele>2475</ele>
        <time>2013-06-07T05:54:04Z</time>
      </trkpt>
      <trkpt lat="42.69932" lon="-0.03653">
        <ele>2475</ele>
        <time>2013-06-07T05:54:18Z</time>
      </trkpt>
      <trkpt lat="42.69932" lon="-0.03653">
        <ele>2476</ele>
        <time>2013-06-07T05:54:30Z</time>
      </trkpt>
      <trkpt lat="42.69931" lon="-0.03651">
        <ele>2475</ele>
        <time>2013-06-07T05:54:41Z</time>
      </trkpt>
      <trkpt lat="42.69931" lon="-0.03654">
        <ele>2475</ele>
        <time>2013-06-07T05:54:58Z</time>
      </trkpt>
      <trkpt lat="42.69932" lon="-0.03652">
        <ele>2475</ele>
        <time>2013-06-07T05:55:10Z</time>
      </trkpt>
      <trkpt lat="42.69931" lon="-0.03654">
        <ele>2475</ele>
        <time>2013-06-07T05:55:25Z</time>
      </trkpt>
      <trkpt lat="42.6993" lon="-0.03655">
        <ele>2475</ele>
        <time>2013-06-07T05:55:35Z</time>
      </trkpt>
      <trkpt lat="42.6993" lon="-0.03654">
        <ele>2475</ele>
        <time>2013-06-07T05:55:47Z</time>
      </trkpt>
      <trkpt lat="42.6993" lon="-0.03651">
        <ele>2475</ele>
        <time>2013-06-07T05:55:57Z</time>
      </trkpt>
      <trkpt lat="42.69928" lon="-0.03651">
        <ele>2475</ele>
        <time>2013-06-07T05:56:05Z</time>
      </trkpt>
      <trkpt lat="42.69923" lon="-0.03649">
        <ele>2476</ele>
        <time>2013-06-07T05:56:14Z</time>
      </trkpt>
      <trkpt lat="42.6992" lon="-0.03649">
        <ele>2478</ele>
        <time>2013-06-07T05:56:21Z</time>
      </trkpt>
      <trkpt lat="42.69915" lon="-0.0365">
        <ele>2479</ele>
        <time>2013-06-07T05:56:29Z</time>
      </trkpt>
      <trkpt lat="42.69911" lon="-0.0365">
        <ele>2480</ele>
        <time>2013-06-07T05:56:35Z</time>
      </trkpt>
      <trkpt lat="42.69908" lon="-0.03655">
        <ele>2482</ele>
        <time>2013-06-07T05:56:43Z</time>
      </trkpt>
      <trkpt lat="42.69906" lon="-0.03659">
        <ele>2484</ele>
        <time>2013-06-07T05:56:50Z</time>
      </trkpt>
      <trkpt lat="42.69902" lon="-0.03663">
        <ele>2485</ele>
        <time>2013-06-07T05:56:59Z</time>
      </trkpt>
      <trkpt lat="42.69902" lon="-0.03659">
        <ele>2485</ele>
        <time>2013-06-07T05:57:07Z</time>
      </trkpt>
      <trkpt lat="42.69906" lon="-0.03666">
        <ele>2485</ele>
        <time>2013-06-07T05:57:14Z</time>
      </trkpt>
      <trkpt lat="42.69904" lon="-0.03662">
        <ele>2485</ele>
        <time>2013-06-07T05:57:23Z</time>
      </trkpt>
      <trkpt lat="42.69903" lon="-0.03654">
        <ele>2488</ele>
        <time>2013-06-07T05:57:34Z</time>
      </trkpt>
      <trkpt lat="42.69902" lon="-0.03647">
        <ele>2490</ele>
        <time>2013-06-07T05:57:44Z</time>
      </trkpt>
      <trkpt lat="42.69902" lon="-0.0364">
        <ele>2491</ele>
        <time>2013-06-07T05:57:51Z</time>
      </trkpt>
      <trkpt lat="42.69903" lon="-0.03637">
        <ele>2492</ele>
        <time>2013-06-07T05:57:59Z</time>
      </trkpt>
      <trkpt lat="42.69905" lon="-0.03628">
        <ele>2493</ele>
        <time>2013-06-07T05:58:08Z</time>
      </trkpt>
      <trkpt lat="42.69907" lon="-0.03624">
        <ele>2496</ele>
        <time>2013-06-07T05:58:16Z</time>
      </trkpt>
      <trkpt lat="42.6991" lon="-0.03613">
        <ele>2498</ele>
        <time>2013-06-07T05:58:26Z</time>
      </trkpt>
      <trkpt lat="42.69911" lon="-0.03608">
        <ele>2499</ele>
        <time>2013-06-07T05:58:35Z</time>
      </trkpt>
      <trkpt lat="42.69911" lon="-0.03608">
        <ele>2499</ele>
        <time>2013-06-07T05:58:47Z</time>
      </trkpt>
      <trkpt lat="42.69907" lon="-0.03611">
        <ele>2499</ele>
        <time>2013-06-07T05:58:52Z</time>
      </trkpt>
      <trkpt lat="42.69903" lon="-0.03611">
        <ele>2500</ele>
        <time>2013-06-07T05:59:01Z</time>
      </trkpt>
      <trkpt lat="42.69901" lon="-0.03611">
        <ele>2501</ele>
        <time>2013-06-07T05:59:05Z</time>
      </trkpt>
      <trkpt lat="42.69895" lon="-0.03608">
        <ele>2503</ele>
        <time>2013-06-07T05:59:13Z</time>
      </trkpt>
      <trkpt lat="42.69892" lon="-0.03608">
        <ele>2504</ele>
        <time>2013-06-07T05:59:18Z</time>
      </trkpt>
      <trkpt lat="42.69887" lon="-0.03609">
        <ele>2506</ele>
        <time>2013-06-07T05:59:28Z</time>
      </trkpt>
      <trkpt lat="42.69884" lon="-0.03611">
        <ele>2508</ele>
        <time>2013-06-07T05:59:35Z</time>
      </trkpt>
      <trkpt lat="42.6988" lon="-0.03616">
        <ele>2509</ele>
        <time>2013-06-07T05:59:44Z</time>
      </trkpt>
      <trkpt lat="42.69875" lon="-0.03619">
        <ele>2511</ele>
        <time>2013-06-07T05:59:52Z</time>
      </trkpt>
      <trkpt lat="42.69872" lon="-0.03623">
        <ele>2512</ele>
        <time>2013-06-07T06:00:00Z</time>
      </trkpt>
      <trkpt lat="42.69868" lon="-0.03625">
        <ele>2514</ele>
        <time>2013-06-07T06:00:11Z</time>
      </trkpt>
      <trkpt lat="42.69863" lon="-0.0363">
        <ele>2515</ele>
        <time>2013-06-07T06:00:21Z</time>
      </trkpt>
      <trkpt lat="42.6986" lon="-0.03631">
        <ele>2517</ele>
        <time>2013-06-07T06:00:27Z</time>
      </trkpt>
      <trkpt lat="42.69857" lon="-0.03633">
        <ele>2519</ele>
        <time>2013-06-07T06:00:35Z</time>
      </trkpt>
      <trkpt lat="42.69854" lon="-0.03631">
        <ele>2520</ele>
        <time>2013-06-07T06:00:43Z</time>
      </trkpt>
      <trkpt lat="42.69848" lon="-0.03633">
        <ele>2522</ele>
        <time>2013-06-07T06:00:52Z</time>
      </trkpt>
      <trkpt lat="42.69846" lon="-0.03637">
        <ele>2523</ele>
        <time>2013-06-07T06:00:59Z</time>
      </trkpt>
      <trkpt lat="42.69845" lon="-0.03637">
        <ele>2523</ele>
        <time>2013-06-07T06:01:07Z</time>
      </trkpt>
      <trkpt lat="42.69846" lon="-0.03637">
        <ele>2524</ele>
        <time>2013-06-07T06:01:22Z</time>
      </trkpt>
      <trkpt lat="42.69844" lon="-0.03629">
        <ele>2525</ele>
        <time>2013-06-07T06:01:31Z</time>
      </trkpt>
      <trkpt lat="42.69843" lon="-0.03622">
        <ele>2527</ele>
        <time>2013-06-07T06:01:42Z</time>
      </trkpt>
      <trkpt lat="42.69839" lon="-0.03617">
        <ele>2527</ele>
        <time>2013-06-07T06:01:50Z</time>
      </trkpt>
      <trkpt lat="42.69834" lon="-0.03618">
        <ele>2529</ele>
        <time>2013-06-07T06:01:57Z</time>
      </trkpt>
      <trkpt lat="42.69829" lon="-0.03618">
        <ele>2531</ele>
        <time>2013-06-07T06:02:05Z</time>
      </trkpt>
      <trkpt lat="42.69826" lon="-0.03618">
        <ele>2532</ele>
        <time>2013-06-07T06:02:13Z</time>
      </trkpt>
      <trkpt lat="42.69821" lon="-0.03617">
        <ele>2534</ele>
        <time>2013-06-07T06:02:23Z</time>
      </trkpt>
      <trkpt lat="42.69816" lon="-0.03614">
        <ele>2536</ele>
        <time>2013-06-07T06:02:32Z</time>
      </trkpt>
      <trkpt lat="42.69809" lon="-0.0361">
        <ele>2539</ele>
        <time>2013-06-07T06:02:45Z</time>
      </trkpt>
      <trkpt lat="42.69802" lon="-0.03604">
        <ele>2540</ele>
        <time>2013-06-07T06:02:57Z</time>
      </trkpt>
      <trkpt lat="42.69795" lon="-0.03599">
        <ele>2542</ele>
        <time>2013-06-07T06:03:07Z</time>
      </trkpt>
      <trkpt lat="42.6979" lon="-0.03597">
        <ele>2543</ele>
        <time>2013-06-07T06:03:14Z</time>
      </trkpt>
      <trkpt lat="42.69787" lon="-0.03594">
        <ele>2545</ele>
        <time>2013-06-07T06:03:21Z</time>
      </trkpt>
      <trkpt lat="42.69783" lon="-0.03593">
        <ele>2546</ele>
        <time>2013-06-07T06:03:31Z</time>
      </trkpt>
      <trkpt lat="42.69779" lon="-0.03592">
        <ele>2548</ele>
        <time>2013-06-07T06:03:40Z</time>
      </trkpt>
      <trkpt lat="42.69774" lon="-0.0359">
        <ele>2550</ele>
        <time>2013-06-07T06:03:49Z</time>
      </trkpt>
      <trkpt lat="42.69772" lon="-0.03587">
        <ele>2551</ele>
        <time>2013-06-07T06:03:58Z</time>
      </trkpt>
      <trkpt lat="42.69769" lon="-0.03584">
        <ele>2553</ele>
        <time>2013-06-07T06:04:07Z</time>
      </trkpt>
      <trkpt lat="42.69766" lon="-0.03583">
        <ele>2555</ele>
        <time>2013-06-07T06:04:16Z</time>
      </trkpt>
      <trkpt lat="42.69763" lon="-0.03581">
        <ele>2556</ele>
        <time>2013-06-07T06:04:25Z</time>
      </trkpt>
      <trkpt lat="42.69759" lon="-0.03578">
        <ele>2558</ele>
        <time>2013-06-07T06:04:34Z</time>
      </trkpt>
      <trkpt lat="42.69753" lon="-0.03573">
        <ele>2559</ele>
        <time>2013-06-07T06:04:41Z</time>
      </trkpt>
      <trkpt lat="42.6975" lon="-0.0357">
        <ele>2561</ele>
        <time>2013-06-07T06:04:47Z</time>
      </trkpt>
      <trkpt lat="42.69746" lon="-0.03565">
        <ele>2562</ele>
        <time>2013-06-07T06:04:57Z</time>
      </trkpt>
      <trkpt lat="42.69742" lon="-0.03561">
        <ele>2563</ele>
        <time>2013-06-07T06:05:05Z</time>
      </trkpt>
      <trkpt lat="42.69737" lon="-0.03556">
        <ele>2564</ele>
        <time>2013-06-07T06:05:13Z</time>
      </trkpt>
      <trkpt lat="42.69733" lon="-0.03552">
        <ele>2566</ele>
        <time>2013-06-07T06:05:22Z</time>
      </trkpt>
      <trkpt lat="42.69727" lon="-0.03551">
        <ele>2567</ele>
        <time>2013-06-07T06:05:29Z</time>
      </trkpt>
      <trkpt lat="42.6973" lon="-0.03558">
        <ele>2568</ele>
        <time>2013-06-07T06:05:40Z</time>
      </trkpt>
      <trkpt lat="42.6973" lon="-0.03552">
        <ele>2568</ele>
        <time>2013-06-07T06:05:53Z</time>
      </trkpt>
      <trkpt lat="42.69732" lon="-0.03547">
        <ele>2568</ele>
        <time>2013-06-07T06:06:01Z</time>
      </trkpt>
      <trkpt lat="42.69732" lon="-0.03553">
        <ele>2568</ele>
        <time>2013-06-07T06:06:09Z</time>
      </trkpt>
      <trkpt lat="42.69728" lon="-0.03552">
        <ele>2568</ele>
        <time>2013-06-07T06:06:21Z</time>
      </trkpt>
      <trkpt lat="42.69728" lon="-0.03553">
        <ele>2568</ele>
        <time>2013-06-07T06:06:29Z</time>
      </trkpt>
      <trkpt lat="42.69726" lon="-0.0355">
        <ele>2568</ele>
        <time>2013-06-07T06:06:40Z</time>
      </trkpt>
      <trkpt lat="42.69728" lon="-0.03553">
        <ele>2568</ele>
        <time>2013-06-07T06:06:51Z</time>
      </trkpt>
      <trkpt lat="42.69729" lon="-0.03555">
        <ele>2568</ele>
        <time>2013-06-07T06:07:02Z</time>
      </trkpt>
      <trkpt lat="42.69731" lon="-0.0355">
        <ele>2567</ele>
        <time>2013-06-07T06:07:13Z</time>
      </trkpt>
      <trkpt lat="42.69728" lon="-0.03548">
        <ele>2569</ele>
        <time>2013-06-07T06:07:20Z</time>
      </trkpt>
      <trkpt lat="42.69726" lon="-0.03546">
        <ele>2571</ele>
        <time>2013-06-07T06:07:28Z</time>
      </trkpt>
      <trkpt lat="42.69726" lon="-0.0354">
        <ele>2572</ele>
        <time>2013-06-07T06:07:37Z</time>
      </trkpt>
      <trkpt lat="42.69731" lon="-0.03529">
        <ele>2574</ele>
        <time>2013-06-07T06:07:47Z</time>
      </trkpt>
      <trkpt lat="42.69736" lon="-0.03523">
        <ele>2576</ele>
        <time>2013-06-07T06:07:55Z</time>
      </trkpt>
      <trkpt lat="42.69741" lon="-0.03519">
        <ele>2577</ele>
        <time>2013-06-07T06:08:02Z</time>
      </trkpt>
      <trkpt lat="42.69745" lon="-0.03518">
        <ele>2579</ele>
        <time>2013-06-07T06:08:11Z</time>
      </trkpt>
      <trkpt lat="42.6975" lon="-0.03515">
        <ele>2580</ele>
        <time>2013-06-07T06:08:18Z</time>
      </trkpt>
      <trkpt lat="42.69754" lon="-0.03511">
        <ele>2582</ele>
        <time>2013-06-07T06:08:25Z</time>
      </trkpt>
      <trkpt lat="42.69757" lon="-0.03509">
        <ele>2584</ele>
        <time>2013-06-07T06:08:32Z</time>
      </trkpt>
      <trkpt lat="42.69755" lon="-0.03505">
        <ele>2585</ele>
        <time>2013-06-07T06:08:39Z</time>
      </trkpt>
      <trkpt lat="42.69749" lon="-0.03498">
        <ele>2586</ele>
        <time>2013-06-07T06:08:48Z</time>
      </trkpt>
      <trkpt lat="42.69744" lon="-0.03492">
        <ele>2587</ele>
        <time>2013-06-07T06:08:58Z</time>
      </trkpt>
    </trkseg>
  </trk>
  <trk>
    <name><![CDATA[Col des Tentes - Cabane des Soldats_2]]></name>
    <trkseg>
      <trkpt lat="42.69744" lon="-0.03492">
        <ele>2587</ele>
        <time>2013-06-07T06:08:58Z</time>
      </trkpt>
      <trkpt lat="42.6974" lon="-0.03489">
        <ele>2589</ele>
        <time>2013-06-07T06:09:02Z</time>
      </trkpt>
      <trkpt lat="42.69737" lon="-0.03483">
        <ele>2590</ele>
        <time>2013-06-07T06:09:12Z</time>
      </trkpt>
      <trkpt lat="42.69734" lon="-0.03482">
        <ele>2590</ele>
        <time>2013-06-07T06:09:19Z</time>
      </trkpt>
      <trkpt lat="42.69733" lon="-0.03482">
        <ele>2591</ele>
        <time>2013-06-07T06:09:26Z</time>
      </trkpt>
      <trkpt lat="42.69732" lon="-0.03482">
        <ele>2592</ele>
        <time>2013-06-07T06:09:32Z</time>
      </trkpt>
      <trkpt lat="42.69735" lon="-0.03483">
        <ele>2592</ele>
        <time>2013-06-07T06:09:41Z</time>
      </trkpt>
      <trkpt lat="42.69736" lon="-0.03486">
        <ele>2592</ele>
        <time>2013-06-07T06:09:52Z</time>
      </trkpt>
      <trkpt lat="42.69737" lon="-0.0348">
        <ele>2592</ele>
        <time>2013-06-07T06:10:08Z</time>
      </trkpt>
      <trkpt lat="42.69737" lon="-0.03482">
        <ele>2592</ele>
        <time>2013-06-07T06:10:28Z</time>
      </trkpt>
      <trkpt lat="42.69737" lon="-0.03481">
        <ele>2593</ele>
        <time>2013-06-07T06:10:44Z</time>
      </trkpt>
      <trkpt lat="42.69736" lon="-0.03481">
        <ele>2593</ele>
        <time>2013-06-07T06:10:53Z</time>
      </trkpt>
      <trkpt lat="42.69729" lon="-0.03479">
        <ele>2591</ele>
        <time>2013-06-07T06:11:00Z</time>
      </trkpt>
      <trkpt lat="42.6972" lon="-0.03478">
        <ele>2591</ele>
        <time>2013-06-07T06:11:07Z</time>
      </trkpt>
      <trkpt lat="42.69712" lon="-0.0348">
        <ele>2592</ele>
        <time>2013-06-07T06:11:17Z</time>
      </trkpt>
      <trkpt lat="42.69706" lon="-0.03476">
        <ele>2594</ele>
        <time>2013-06-07T06:11:25Z</time>
      </trkpt>
      <trkpt lat="42.69699" lon="-0.03471">
        <ele>2594</ele>
        <time>2013-06-07T06:11:34Z</time>
      </trkpt>
      <trkpt lat="42.69695" lon="-0.03469">
        <ele>2595</ele>
        <time>2013-06-07T06:11:39Z</time>
      </trkpt>
      <trkpt lat="42.6969" lon="-0.03464">
        <ele>2596</ele>
        <time>2013-06-07T06:11:47Z</time>
      </trkpt>
      <trkpt lat="42.69685" lon="-0.0346">
        <ele>2598</ele>
        <time>2013-06-07T06:11:54Z</time>
      </trkpt>
      <trkpt lat="42.69681" lon="-0.03455">
        <ele>2599</ele>
        <time>2013-06-07T06:12:02Z</time>
      </trkpt>
      <trkpt lat="42.69675" lon="-0.03451">
        <ele>2600</ele>
        <time>2013-06-07T06:12:11Z</time>
      </trkpt>
      <trkpt lat="42.69671" lon="-0.03447">
        <ele>2600</ele>
        <time>2013-06-07T06:12:18Z</time>
      </trkpt>
      <trkpt lat="42.69667" lon="-0.03441">
        <ele>2601</ele>
        <time>2013-06-07T06:12:25Z</time>
      </trkpt>
      <trkpt lat="42.69662" lon="-0.03434">
        <ele>2601</ele>
        <time>2013-06-07T06:12:33Z</time>
      </trkpt>
      <trkpt lat="42.69658" lon="-0.03426">
        <ele>2601</ele>
        <time>2013-06-07T06:12:44Z</time>
      </trkpt>
      <trkpt lat="42.69653" lon="-0.0342">
        <ele>2600</ele>
        <time>2013-06-07T06:12:52Z</time>
      </trkpt>
      <trkpt lat="42.69649" lon="-0.03413">
        <ele>2600</ele>
        <time>2013-06-07T06:13:00Z</time>
      </trkpt>
      <trkpt lat="42.69643" lon="-0.03407">
        <ele>2599</ele>
        <time>2013-06-07T06:13:07Z</time>
      </trkpt>
      <trkpt lat="42.69637" lon="-0.03399">
        <ele>2598</ele>
        <time>2013-06-07T06:13:18Z</time>
      </trkpt>
      <trkpt lat="42.69633" lon="-0.03393">
        <ele>2597</ele>
        <time>2013-06-07T06:13:28Z</time>
      </trkpt>
      <trkpt lat="42.6963" lon="-0.03387">
        <ele>2595</ele>
        <time>2013-06-07T06:13:36Z</time>
      </trkpt>
      <trkpt lat="42.69627" lon="-0.03384">
        <ele>2595</ele>
        <time>2013-06-07T06:13:43Z</time>
      </trkpt>
      <trkpt lat="42.69621" lon="-0.03379">
        <ele>2595</ele>
        <time>2013-06-07T06:13:53Z</time>
      </trkpt>
      <trkpt lat="42.69614" lon="-0.03374">
        <ele>2595</ele>
        <time>2013-06-07T06:14:00Z</time>
      </trkpt>
      <trkpt lat="42.69608" lon="-0.0337">
        <ele>2595</ele>
        <time>2013-06-07T06:14:08Z</time>
      </trkpt>
      <trkpt lat="42.69603" lon="-0.03365">
        <ele>2595</ele>
        <time>2013-06-07T06:14:16Z</time>
      </trkpt>
      <trkpt lat="42.69602" lon="-0.03362">
        <ele>2594</ele>
        <time>2013-06-07T06:14:24Z</time>
      </trkpt>
      <trkpt lat="42.696" lon="-0.03358">
        <ele>2593</ele>
        <time>2013-06-07T06:14:31Z</time>
      </trkpt>
      <trkpt lat="42.69599" lon="-0.03356">
        <ele>2593</ele>
        <time>2013-06-07T06:14:33Z</time>
      </trkpt>
      <trkpt lat="42.69596" lon="-0.0335">
        <ele>2591</ele>
        <time>2013-06-07T06:14:40Z</time>
      </trkpt>
      <trkpt lat="42.69592" lon="-0.03344">
        <ele>2591</ele>
        <time>2013-06-07T06:14:48Z</time>
      </trkpt>
      <trkpt lat="42.69588" lon="-0.03341">
        <ele>2591</ele>
        <time>2013-06-07T06:14:56Z</time>
      </trkpt>
      <trkpt lat="42.69588" lon="-0.0334">
        <ele>2592</ele>
        <time>2013-06-07T06:15:06Z</time>
      </trkpt>
      <trkpt lat="42.69588" lon="-0.03341">
        <ele>2592</ele>
        <time>2013-06-07T06:15:15Z</time>
      </trkpt>
      <trkpt lat="42.69586" lon="-0.03342">
        <ele>2592</ele>
        <time>2013-06-07T06:15:28Z</time>
      </trkpt>
      <trkpt lat="42.69587" lon="-0.03343">
        <ele>2592</ele>
        <time>2013-06-07T06:15:37Z</time>
      </trkpt>
      <trkpt lat="42.69588" lon="-0.03343">
        <ele>2593</ele>
        <time>2013-06-07T06:15:45Z</time>
      </trkpt>
      <trkpt lat="42.69591" lon="-0.03343">
        <ele>2592</ele>
        <time>2013-06-07T06:16:00Z</time>
      </trkpt>
      <trkpt lat="42.69591" lon="-0.03343">
        <ele>2593</ele>
        <time>2013-06-07T06:16:02Z</time>
      </trkpt>
      <trkpt lat="42.69591" lon="-0.03343">
        <ele>2593</ele>
        <time>2013-06-07T06:16:16Z</time>
      </trkpt>
      <trkpt lat="42.6959" lon="-0.03343">
        <ele>2593</ele>
        <time>2013-06-07T06:16:27Z</time>
      </trkpt>
      <trkpt lat="42.69589" lon="-0.03343">
        <ele>2593</ele>
        <time>2013-06-07T06:16:45Z</time>
      </trkpt>
      <trkpt lat="42.69587" lon="-0.0334">
        <ele>2593</ele>
        <time>2013-06-07T06:16:57Z</time>
      </trkpt>
      <trkpt lat="42.69587" lon="-0.03338">
        <ele>2593</ele>
        <time>2013-06-07T06:17:19Z</time>
      </trkpt>
      <trkpt lat="42.69588" lon="-0.0334">
        <ele>2593</ele>
        <time>2013-06-07T06:17:36Z</time>
      </trkpt>
      <trkpt lat="42.69586" lon="-0.03342">
        <ele>2593</ele>
        <time>2013-06-07T06:18:02Z</time>
      </trkpt>
      <trkpt lat="42.69586" lon="-0.03342">
        <ele>2593</ele>
        <time>2013-06-07T06:18:13Z</time>
      </trkpt>
      <trkpt lat="42.6959" lon="-0.03341">
        <ele>2593</ele>
        <time>2013-06-07T06:18:27Z</time>
      </trkpt>
      <trkpt lat="42.6959" lon="-0.03342">
        <ele>2593</ele>
        <time>2013-06-07T06:18:37Z</time>
      </trkpt>
      <trkpt lat="42.6959" lon="-0.03342">
        <ele>2594</ele>
        <time>2013-06-07T06:18:48Z</time>
      </trkpt>
      <trkpt lat="42.69591" lon="-0.03345">
        <ele>2594</ele>
        <time>2013-06-07T06:19:02Z</time>
      </trkpt>
      <trkpt lat="42.6959" lon="-0.03344">
        <ele>2593</ele>
        <time>2013-06-07T06:19:14Z</time>
      </trkpt>
      <trkpt lat="42.69588" lon="-0.03345">
        <ele>2594</ele>
        <time>2013-06-07T06:19:23Z</time>
      </trkpt>
      <trkpt lat="42.69588" lon="-0.03344">
        <ele>2594</ele>
        <time>2013-06-07T06:19:37Z</time>
      </trkpt>
      <trkpt lat="42.6959" lon="-0.03343">
        <ele>2594</ele>
        <time>2013-06-07T06:19:48Z</time>
      </trkpt>
      <trkpt lat="42.69591" lon="-0.03342">
        <ele>2594</ele>
        <time>2013-06-07T06:19:55Z</time>
      </trkpt>
      <trkpt lat="42.69591" lon="-0.0334">
        <ele>2594</ele>
        <time>2013-06-07T06:20:08Z</time>
      </trkpt>
      <trkpt lat="42.69584" lon="-0.03342">
        <ele>2594</ele>
        <time>2013-06-07T06:20:29Z</time>
      </trkpt>
      <trkpt lat="42.69586" lon="-0.03339">
        <ele>2594</ele>
        <time>2013-06-07T06:21:00Z</time>
      </trkpt>
      <trkpt lat="42.69586" lon="-0.03341">
        <ele>2595</ele>
        <time>2013-06-07T06:21:13Z</time>
      </trkpt>
      <trkpt lat="42.69587" lon="-0.03342">
        <ele>2595</ele>
        <time>2013-06-07T06:21:25Z</time>
      </trkpt>
      <trkpt lat="42.69589" lon="-0.03343">
        <ele>2595</ele>
        <time>2013-06-07T06:21:36Z</time>
      </trkpt>
      <trkpt lat="42.69589" lon="-0.03344">
        <ele>2595</ele>
        <time>2013-06-07T06:21:48Z</time>
      </trkpt>
      <trkpt lat="42.69591" lon="-0.03343">
        <ele>2595</ele>
        <time>2013-06-07T06:22:01Z</time>
      </trkpt>
      <trkpt lat="42.69591" lon="-0.03343">
        <ele>2595</ele>
        <time>2013-06-07T06:22:14Z</time>
      </trkpt>
      <trkpt lat="42.69592" lon="-0.03341">
        <ele>2595</ele>
        <time>2013-06-07T06:22:25Z</time>
      </trkpt>
      <trkpt lat="42.6959" lon="-0.03337">
        <ele>2595</ele>
        <time>2013-06-07T06:22:41Z</time>
      </trkpt>
      <trkpt lat="42.69589" lon="-0.03338">
        <ele>2595</ele>
        <time>2013-06-07T06:22:52Z</time>
      </trkpt>
      <trkpt lat="42.69588" lon="-0.0334">
        <ele>2595</ele>
        <time>2013-06-07T06:23:02Z</time>
      </trkpt>
      <trkpt lat="42.69589" lon="-0.03343">
        <ele>2595</ele>
        <time>2013-06-07T06:23:16Z</time>
      </trkpt>
      <trkpt lat="42.69589" lon="-0.03343">
        <ele>2595</ele>
        <time>2013-06-07T06:23:29Z</time>
      </trkpt>
      <trkpt lat="42.6959" lon="-0.03341">
        <ele>2595</ele>
        <time>2013-06-07T06:23:38Z</time>
      </trkpt>
      <trkpt lat="42.6959" lon="-0.03339">
        <ele>2596</ele>
        <time>2013-06-07T06:23:51Z</time>
      </trkpt>
      <trkpt lat="42.69588" lon="-0.0334">
        <ele>2596</ele>
        <time>2013-06-07T06:24:07Z</time>
      </trkpt>
      <trkpt lat="42.69589" lon="-0.0334">
        <ele>2596</ele>
        <time>2013-06-07T06:24:23Z</time>
      </trkpt>
      <trkpt lat="42.69589" lon="-0.0334">
        <ele>2596</ele>
        <time>2013-06-07T06:24:35Z</time>
      </trkpt>
      <trkpt lat="42.69588" lon="-0.0334">
        <ele>2596</ele>
        <time>2013-06-07T06:24:47Z</time>
      </trkpt>
      <trkpt lat="42.69588" lon="-0.03341">
        <ele>2596</ele>
        <time>2013-06-07T06:24:58Z</time>
      </trkpt>
      <trkpt lat="42.69588" lon="-0.03342">
        <ele>2596</ele>
        <time>2013-06-07T06:25:08Z</time>
      </trkpt>
      <trkpt lat="42.6959" lon="-0.0334">
        <ele>2596</ele>
        <time>2013-06-07T06:25:17Z</time>
      </trkpt>
      <trkpt lat="42.6959" lon="-0.03339">
        <ele>2596</ele>
        <time>2013-06-07T06:25:30Z</time>
      </trkpt>
      <trkpt lat="42.69591" lon="-0.03342">
        <ele>2596</ele>
        <time>2013-06-07T06:25:37Z</time>
      </trkpt>
      <trkpt lat="42.69587" lon="-0.03345">
        <ele>2596</ele>
        <time>2013-06-07T06:25:45Z</time>
      </trkpt>
      <trkpt lat="42.69581" lon="-0.03353">
        <ele>2598</ele>
        <time>2013-06-07T06:25:56Z</time>
      </trkpt>
      <trkpt lat="42.69576" lon="-0.03361">
        <ele>2599</ele>
        <time>2013-06-07T06:26:06Z</time>
      </trkpt>
      <trkpt lat="42.6957" lon="-0.03367">
        <ele>2601</ele>
        <time>2013-06-07T06:26:14Z</time>
      </trkpt>
      <trkpt lat="42.69568" lon="-0.03369">
        <ele>2602</ele>
        <time>2013-06-07T06:26:22Z</time>
      </trkpt>
      <trkpt lat="42.69567" lon="-0.03369">
        <ele>2601</ele>
        <time>2013-06-07T06:26:44Z</time>
      </trkpt>
      <trkpt lat="42.69566" lon="-0.03369">
        <ele>2601</ele>
        <time>2013-06-07T06:27:04Z</time>
      </trkpt>
      <trkpt lat="42.69567" lon="-0.03369">
        <ele>2601</ele>
        <time>2013-06-07T06:27:20Z</time>
      </trkpt>
      <trkpt lat="42.69564" lon="-0.03372">
        <ele>2602</ele>
        <time>2013-06-07T06:27:26Z</time>
      </trkpt>
      <trkpt lat="42.69561" lon="-0.03376">
        <ele>2603</ele>
        <time>2013-06-07T06:27:31Z</time>
      </trkpt>
      <trkpt lat="42.69556" lon="-0.0338">
        <ele>2606</ele>
        <time>2013-06-07T06:27:40Z</time>
      </trkpt>
      <trkpt lat="42.6955" lon="-0.03386">
        <ele>2607</ele>
        <time>2013-06-07T06:27:51Z</time>
      </trkpt>
      <trkpt lat="42.69546" lon="-0.03392">
        <ele>2609</ele>
        <time>2013-06-07T06:28:00Z</time>
      </trkpt>
      <trkpt lat="42.69543" lon="-0.03396">
        <ele>2611</ele>
        <time>2013-06-07T06:28:10Z</time>
      </trkpt>
      <trkpt lat="42.69537" lon="-0.03404">
        <ele>2612</ele>
        <time>2013-06-07T06:28:19Z</time>
      </trkpt>
      <trkpt lat="42.69533" lon="-0.03408">
        <ele>2613</ele>
        <time>2013-06-07T06:28:25Z</time>
      </trkpt>
      <trkpt lat="42.69527" lon="-0.03413">
        <ele>2615</ele>
        <time>2013-06-07T06:28:35Z</time>
      </trkpt>
      <trkpt lat="42.69521" lon="-0.03419">
        <ele>2616</ele>
        <time>2013-06-07T06:28:45Z</time>
      </trkpt>
      <trkpt lat="42.69516" lon="-0.03422">
        <ele>2618</ele>
        <time>2013-06-07T06:28:53Z</time>
      </trkpt>
      <trkpt lat="42.69509" lon="-0.03428">
        <ele>2620</ele>
        <time>2013-06-07T06:29:04Z</time>
      </trkpt>
      <trkpt lat="42.695" lon="-0.03432">
        <ele>2622</ele>
        <time>2013-06-07T06:29:16Z</time>
      </trkpt>
      <trkpt lat="42.69495" lon="-0.03432">
        <ele>2624</ele>
        <time>2013-06-07T06:29:25Z</time>
      </trkpt>
      <trkpt lat="42.69494" lon="-0.03431">
        <ele>2625</ele>
        <time>2013-06-07T06:29:27Z</time>
      </trkpt>
      <trkpt lat="42.69488" lon="-0.03427">
        <ele>2626</ele>
        <time>2013-06-07T06:29:36Z</time>
      </trkpt>
      <trkpt lat="42.69483" lon="-0.03424">
        <ele>2627</ele>
        <time>2013-06-07T06:29:45Z</time>
      </trkpt>
      <trkpt lat="42.6948" lon="-0.03415">
        <ele>2630</ele>
        <time>2013-06-07T06:29:55Z</time>
      </trkpt>
      <trkpt lat="42.69477" lon="-0.03409">
        <ele>2631</ele>
        <time>2013-06-07T06:30:03Z</time>
      </trkpt>
      <trkpt lat="42.69474" lon="-0.03407">
        <ele>2632</ele>
        <time>2013-06-07T06:30:13Z</time>
      </trkpt>
      <trkpt lat="42.69468" lon="-0.03403">
        <ele>2635</ele>
        <time>2013-06-07T06:30:26Z</time>
      </trkpt>
      <trkpt lat="42.69466" lon="-0.03402">
        <ele>2635</ele>
        <time>2013-06-07T06:30:28Z</time>
      </trkpt>
      <trkpt lat="42.6946" lon="-0.03397">
        <ele>2637</ele>
        <time>2013-06-07T06:30:37Z</time>
      </trkpt>
      <trkpt lat="42.69454" lon="-0.03394">
        <ele>2639</ele>
        <time>2013-06-07T06:30:50Z</time>
      </trkpt>
      <trkpt lat="42.69451" lon="-0.03392">
        <ele>2641</ele>
        <time>2013-06-07T06:30:59Z</time>
      </trkpt>
      <trkpt lat="42.69446" lon="-0.03391">
        <ele>2643</ele>
        <time>2013-06-07T06:31:08Z</time>
      </trkpt>
      <trkpt lat="42.69442" lon="-0.0339">
        <ele>2645</ele>
        <time>2013-06-07T06:31:17Z</time>
      </trkpt>
      <trkpt lat="42.69436" lon="-0.0339">
        <ele>2647</ele>
        <time>2013-06-07T06:31:26Z</time>
      </trkpt>
      <trkpt lat="42.69431" lon="-0.03391">
        <ele>2648</ele>
        <time>2013-06-07T06:31:34Z</time>
      </trkpt>
      <trkpt lat="42.69426" lon="-0.0339">
        <ele>2650</ele>
        <time>2013-06-07T06:31:42Z</time>
      </trkpt>
      <trkpt lat="42.69422" lon="-0.03388">
        <ele>2652</ele>
        <time>2013-06-07T06:31:54Z</time>
      </trkpt>
      <trkpt lat="42.69418" lon="-0.03386">
        <ele>2654</ele>
        <time>2013-06-07T06:32:02Z</time>
      </trkpt>
      <trkpt lat="42.69414" lon="-0.03382">
        <ele>2656</ele>
        <time>2013-06-07T06:32:10Z</time>
      </trkpt>
      <trkpt lat="42.69415" lon="-0.03384">
        <ele>2656</ele>
        <time>2013-06-07T06:32:20Z</time>
      </trkpt>
      <trkpt lat="42.69413" lon="-0.03386">
        <ele>2655</ele>
        <time>2013-06-07T06:32:30Z</time>
      </trkpt>
      <trkpt lat="42.69416" lon="-0.0339">
        <ele>2656</ele>
        <time>2013-06-07T06:32:43Z</time>
      </trkpt>
      <trkpt lat="42.69414" lon="-0.03385">
        <ele>2655</ele>
        <time>2013-06-07T06:32:59Z</time>
      </trkpt>
      <trkpt lat="42.69414" lon="-0.03386">
        <ele>2655</ele>
        <time>2013-06-07T06:33:12Z</time>
      </trkpt>
      <trkpt lat="42.69415" lon="-0.03388">
        <ele>2656</ele>
        <time>2013-06-07T06:33:19Z</time>
      </trkpt>
      <trkpt lat="42.69415" lon="-0.03392">
        <ele>2657</ele>
        <time>2013-06-07T06:33:28Z</time>
      </trkpt>
      <trkpt lat="42.69414" lon="-0.03399">
        <ele>2659</ele>
        <time>2013-06-07T06:33:37Z</time>
      </trkpt>
      <trkpt lat="42.69413" lon="-0.03409">
        <ele>2661</ele>
        <time>2013-06-07T06:33:47Z</time>
      </trkpt>
      <trkpt lat="42.69411" lon="-0.03413">
        <ele>2662</ele>
        <time>2013-06-07T06:33:54Z</time>
      </trkpt>
      <trkpt lat="42.6941" lon="-0.03416">
        <ele>2662</ele>
        <time>2013-06-07T06:34:05Z</time>
      </trkpt>
      <trkpt lat="42.6941" lon="-0.03419">
        <ele>2663</ele>
        <time>2013-06-07T06:34:12Z</time>
      </trkpt>
      <trkpt lat="42.69408" lon="-0.03424">
        <ele>2665</ele>
        <time>2013-06-07T06:34:20Z</time>
      </trkpt>
      <trkpt lat="42.69407" lon="-0.03431">
        <ele>2667</ele>
        <time>2013-06-07T06:34:30Z</time>
      </trkpt>
      <trkpt lat="42.69406" lon="-0.03434">
        <ele>2669</ele>
        <time>2013-06-07T06:34:35Z</time>
      </trkpt>
      <trkpt lat="42.69406" lon="-0.03439">
        <ele>2670</ele>
        <time>2013-06-07T06:34:43Z</time>
      </trkpt>
      <trkpt lat="42.69405" lon="-0.03441">
        <ele>2670</ele>
        <time>2013-06-07T06:34:45Z</time>
      </trkpt>
      <trkpt lat="42.69401" lon="-0.03447">
        <ele>2671</ele>
        <time>2013-06-07T06:34:54Z</time>
      </trkpt>
      <trkpt lat="42.694" lon="-0.0345">
        <ele>2674</ele>
        <time>2013-06-07T06:35:03Z</time>
      </trkpt>
      <trkpt lat="42.69398" lon="-0.03455">
        <ele>2675</ele>
        <time>2013-06-07T06:35:12Z</time>
      </trkpt>
      <trkpt lat="42.69396" lon="-0.03462">
        <ele>2677</ele>
        <time>2013-06-07T06:35:20Z</time>
      </trkpt>
      <trkpt lat="42.69395" lon="-0.03467">
        <ele>2679</ele>
        <time>2013-06-07T06:35:28Z</time>
      </trkpt>
      <trkpt lat="42.69394" lon="-0.03473">
        <ele>2680</ele>
        <time>2013-06-07T06:35:36Z</time>
      </trkpt>
      <trkpt lat="42.69393" lon="-0.03478">
        <ele>2682</ele>
        <time>2013-06-07T06:35:46Z</time>
      </trkpt>
      <trkpt lat="42.69393" lon="-0.03478">
        <ele>2683</ele>
        <time>2013-06-07T06:35:51Z</time>
      </trkpt>
      <trkpt lat="42.69389" lon="-0.03476">
        <ele>2683</ele>
        <time>2013-06-07T06:36:01Z</time>
      </trkpt>
      <trkpt lat="42.69386" lon="-0.03472">
        <ele>2685</ele>
        <time>2013-06-07T06:36:09Z</time>
      </trkpt>
      <trkpt lat="42.69381" lon="-0.03466">
        <ele>2687</ele>
        <time>2013-06-07T06:36:19Z</time>
      </trkpt>
      <trkpt lat="42.69376" lon="-0.03462">
        <ele>2687</ele>
        <time>2013-06-07T06:36:27Z</time>
      </trkpt>
      <trkpt lat="42.69373" lon="-0.03457">
        <ele>2690</ele>
        <time>2013-06-07T06:36:35Z</time>
      </trkpt>
      <trkpt lat="42.69372" lon="-0.03455">
        <ele>2690</ele>
        <time>2013-06-07T06:36:42Z</time>
      </trkpt>
      <trkpt lat="42.69368" lon="-0.0345">
        <ele>2692</ele>
        <time>2013-06-07T06:36:50Z</time>
      </trkpt>
      <trkpt lat="42.69367" lon="-0.03449">
        <ele>2692</ele>
        <time>2013-06-07T06:36:57Z</time>
      </trkpt>
      <trkpt lat="42.69366" lon="-0.03448">
        <ele>2694</ele>
        <time>2013-06-07T06:37:06Z</time>
      </trkpt>
      <trkpt lat="42.69364" lon="-0.03448">
        <ele>2694</ele>
        <time>2013-06-07T06:37:15Z</time>
      </trkpt>
      <trkpt lat="42.69361" lon="-0.03443">
        <ele>2696</ele>
        <time>2013-06-07T06:37:22Z</time>
      </trkpt>
      <trkpt lat="42.69358" lon="-0.03439">
        <ele>2699</ele>
        <time>2013-06-07T06:37:31Z</time>
      </trkpt>
      <trkpt lat="42.69356" lon="-0.03435">
        <ele>2699</ele>
        <time>2013-06-07T06:37:39Z</time>
      </trkpt>
      <trkpt lat="42.69351" lon="-0.03429">
        <ele>2702</ele>
        <time>2013-06-07T06:37:47Z</time>
      </trkpt>
      <trkpt lat="42.69348" lon="-0.03424">
        <ele>2703</ele>
        <time>2013-06-07T06:37:56Z</time>
      </trkpt>
      <trkpt lat="42.69345" lon="-0.03421">
        <ele>2704</ele>
        <time>2013-06-07T06:38:03Z</time>
      </trkpt>
      <trkpt lat="42.69341" lon="-0.03416">
        <ele>2705</ele>
        <time>2013-06-07T06:38:10Z</time>
      </trkpt>
      <trkpt lat="42.6934" lon="-0.03414">
        <ele>2706</ele>
        <time>2013-06-07T06:38:13Z</time>
      </trkpt>
      <trkpt lat="42.69338" lon="-0.03411">
        <ele>2707</ele>
        <time>2013-06-07T06:38:19Z</time>
      </trkpt>
      <trkpt lat="42.69335" lon="-0.03408">
        <ele>2708</ele>
        <time>2013-06-07T06:38:27Z</time>
      </trkpt>
      <trkpt lat="42.69332" lon="-0.03406">
        <ele>2711</ele>
        <time>2013-06-07T06:38:35Z</time>
      </trkpt>
      <trkpt lat="42.69327" lon="-0.03404">
        <ele>2711</ele>
        <time>2013-06-07T06:38:43Z</time>
      </trkpt>
      <trkpt lat="42.69325" lon="-0.034">
        <ele>2714</ele>
        <time>2013-06-07T06:38:50Z</time>
      </trkpt>
      <trkpt lat="42.69321" lon="-0.03399">
        <ele>2715</ele>
        <time>2013-06-07T06:38:59Z</time>
      </trkpt>
      <trkpt lat="42.6932" lon="-0.03397">
        <ele>2717</ele>
        <time>2013-06-07T06:39:02Z</time>
      </trkpt>
      <trkpt lat="42.69317" lon="-0.03393">
        <ele>2717</ele>
        <time>2013-06-07T06:39:10Z</time>
      </trkpt>
      <trkpt lat="42.69314" lon="-0.03389">
        <ele>2719</ele>
        <time>2013-06-07T06:39:20Z</time>
      </trkpt>
      <trkpt lat="42.69309" lon="-0.03386">
        <ele>2721</ele>
        <time>2013-06-07T06:39:28Z</time>
      </trkpt>
      <trkpt lat="42.69306" lon="-0.03382">
        <ele>2722</ele>
        <time>2013-06-07T06:39:37Z</time>
      </trkpt>
      <trkpt lat="42.69299" lon="-0.03372">
        <ele>2722</ele>
        <time>2013-06-07T06:39:50Z</time>
      </trkpt>
      <trkpt lat="42.69298" lon="-0.03372">
        <ele>2722</ele>
        <time>2013-06-07T06:39:56Z</time>
      </trkpt>
      <trkpt lat="42.69308" lon="-0.03385">
        <ele>2722</ele>
        <time>2013-06-07T06:40:13Z</time>
      </trkpt>
      <trkpt lat="42.69309" lon="-0.03386">
        <ele>2722</ele>
        <time>2013-06-07T06:40:18Z</time>
      </trkpt>
      <trkpt lat="42.69308" lon="-0.03386">
        <ele>2722</ele>
        <time>2013-06-07T06:40:24Z</time>
      </trkpt>
      <trkpt lat="42.69309" lon="-0.03392">
        <ele>2724</ele>
        <time>2013-06-07T06:40:33Z</time>
      </trkpt>
      <trkpt lat="42.69309" lon="-0.03401">
        <ele>2725</ele>
        <time>2013-06-07T06:40:42Z</time>
      </trkpt>
      <trkpt lat="42.69309" lon="-0.03407">
        <ele>2726</ele>
        <time>2013-06-07T06:40:52Z</time>
      </trkpt>
      <trkpt lat="42.69308" lon="-0.03408">
        <ele>2728</ele>
        <time>2013-06-07T06:40:55Z</time>
      </trkpt>
      <trkpt lat="42.69306" lon="-0.03411">
        <ele>2729</ele>
        <time>2013-06-07T06:41:03Z</time>
      </trkpt>
      <trkpt lat="42.69303" lon="-0.0341">
        <ele>2729</ele>
        <time>2013-06-07T06:41:11Z</time>
      </trkpt>
      <trkpt lat="42.69297" lon="-0.03407">
        <ele>2731</ele>
        <time>2013-06-07T06:41:20Z</time>
      </trkpt>
      <trkpt lat="42.6929" lon="-0.03405">
        <ele>2733</ele>
        <time>2013-06-07T06:41:29Z</time>
      </trkpt>
      <trkpt lat="42.69287" lon="-0.03411">
        <ele>2733</ele>
        <time>2013-06-07T06:41:36Z</time>
      </trkpt>
      <trkpt lat="42.69287" lon="-0.03412">
        <ele>2734</ele>
        <time>2013-06-07T06:41:37Z</time>
      </trkpt>
      <trkpt lat="42.69283" lon="-0.03418">
        <ele>2735</ele>
        <time>2013-06-07T06:41:46Z</time>
      </trkpt>
      <trkpt lat="42.6928" lon="-0.03425">
        <ele>2736</ele>
        <time>2013-06-07T06:41:53Z</time>
      </trkpt>
      <trkpt lat="42.69278" lon="-0.03431">
        <ele>2737</ele>
        <time>2013-06-07T06:42:03Z</time>
      </trkpt>
      <trkpt lat="42.69274" lon="-0.03438">
        <ele>2739</ele>
        <time>2013-06-07T06:42:12Z</time>
      </trkpt>
      <trkpt lat="42.69271" lon="-0.03445">
        <ele>2740</ele>
        <time>2013-06-07T06:42:20Z</time>
      </trkpt>
      <trkpt lat="42.69273" lon="-0.03446">
        <ele>2740</ele>
        <time>2013-06-07T06:42:29Z</time>
      </trkpt>
      <trkpt lat="42.69274" lon="-0.03447">
        <ele>2739</ele>
        <time>2013-06-07T06:42:48Z</time>
      </trkpt>
      <trkpt lat="42.69272" lon="-0.03445">
        <ele>2740</ele>
        <time>2013-06-07T06:42:58Z</time>
      </trkpt>
      <trkpt lat="42.69271" lon="-0.03445">
        <ele>2739</ele>
        <time>2013-06-07T06:43:10Z</time>
      </trkpt>
      <trkpt lat="42.6927" lon="-0.03445">
        <ele>2739</ele>
        <time>2013-06-07T06:43:15Z</time>
      </trkpt>
      <trkpt lat="42.6927" lon="-0.03443">
        <ele>2740</ele>
        <time>2013-06-07T06:43:35Z</time>
      </trkpt>
      <trkpt lat="42.6927" lon="-0.03443">
        <ele>2740</ele>
        <time>2013-06-07T06:43:47Z</time>
      </trkpt>
      <trkpt lat="42.69269" lon="-0.03443">
        <ele>2740</ele>
        <time>2013-06-07T06:44:00Z</time>
      </trkpt>
      <trkpt lat="42.69269" lon="-0.03443">
        <ele>2740</ele>
        <time>2013-06-07T06:44:10Z</time>
      </trkpt>
      <trkpt lat="42.69267" lon="-0.03448">
        <ele>2741</ele>
        <time>2013-06-07T06:44:19Z</time>
      </trkpt>
      <trkpt lat="42.69265" lon="-0.03454">
        <ele>2742</ele>
        <time>2013-06-07T06:44:25Z</time>
      </trkpt>
      <trkpt lat="42.69259" lon="-0.03459">
        <ele>2742</ele>
        <time>2013-06-07T06:44:34Z</time>
      </trkpt>
      <trkpt lat="42.69257" lon="-0.03464">
        <ele>2742</ele>
        <time>2013-06-07T06:44:46Z</time>
      </trkpt>
      <trkpt lat="42.69258" lon="-0.03472">
        <ele>2742</ele>
        <time>2013-06-07T06:44:53Z</time>
      </trkpt>
      <trkpt lat="42.69257" lon="-0.03478">
        <ele>2742</ele>
        <time>2013-06-07T06:45:01Z</time>
      </trkpt>
      <trkpt lat="42.69257" lon="-0.03481">
        <ele>2741</ele>
        <time>2013-06-07T06:45:08Z</time>
      </trkpt>
      <trkpt lat="42.69257" lon="-0.03494">
        <ele>2742</ele>
        <time>2013-06-07T06:45:18Z</time>
      </trkpt>
      <trkpt lat="42.69256" lon="-0.03495">
        <ele>2742</ele>
        <time>2013-06-07T06:45:33Z</time>
      </trkpt>
      <trkpt lat="42.69256" lon="-0.03497">
        <ele>2742</ele>
        <time>2013-06-07T06:45:39Z</time>
      </trkpt>
      <trkpt lat="42.69255" lon="-0.03497">
        <ele>2742</ele>
        <time>2013-06-07T06:45:50Z</time>
      </trkpt>
      <trkpt lat="42.69256" lon="-0.035">
        <ele>2741</ele>
        <time>2013-06-07T06:45:59Z</time>
      </trkpt>
      <trkpt lat="42.69256" lon="-0.03503">
        <ele>2742</ele>
        <time>2013-06-07T06:46:01Z</time>
      </trkpt>
      <trkpt lat="42.69254" lon="-0.03514">
        <ele>2742</ele>
        <time>2013-06-07T06:46:11Z</time>
      </trkpt>
      <trkpt lat="42.69254" lon="-0.03514">
        <ele>2743</ele>
        <time>2013-06-07T06:46:14Z</time>
      </trkpt>
      <trkpt lat="42.69249" lon="-0.03518">
        <ele>2743</ele>
        <time>2013-06-07T06:46:22Z</time>
      </trkpt>
      <trkpt lat="42.69244" lon="-0.03523">
        <ele>2745</ele>
        <time>2013-06-07T06:46:31Z</time>
      </trkpt>
      <trkpt lat="42.69239" lon="-0.03527">
        <ele>2747</ele>
        <time>2013-06-07T06:46:39Z</time>
      </trkpt>
      <trkpt lat="42.69234" lon="-0.03528">
        <ele>2747</ele>
        <time>2013-06-07T06:46:47Z</time>
      </trkpt>
      <trkpt lat="42.69228" lon="-0.03528">
        <ele>2749</ele>
        <time>2013-06-07T06:46:55Z</time>
      </trkpt>
      <trkpt lat="42.69222" lon="-0.03523">
        <ele>2750</ele>
        <time>2013-06-07T06:47:05Z</time>
      </trkpt>
      <trkpt lat="42.69216" lon="-0.0352">
        <ele>2750</ele>
        <time>2013-06-07T06:47:12Z</time>
      </trkpt>
      <trkpt lat="42.69215" lon="-0.0352">
        <ele>2751</ele>
        <time>2013-06-07T06:47:13Z</time>
      </trkpt>
      <trkpt lat="42.6921" lon="-0.03515">
        <ele>2753</ele>
        <time>2013-06-07T06:47:21Z</time>
      </trkpt>
      <trkpt lat="42.69205" lon="-0.03509">
        <ele>2753</ele>
        <time>2013-06-07T06:47:30Z</time>
      </trkpt>
      <trkpt lat="42.692" lon="-0.03503">
        <ele>2754</ele>
        <time>2013-06-07T06:47:39Z</time>
      </trkpt>
      <trkpt lat="42.69195" lon="-0.03496">
        <ele>2755</ele>
        <time>2013-06-07T06:47:47Z</time>
      </trkpt>
      <trkpt lat="42.6919" lon="-0.0349">
        <ele>2757</ele>
        <time>2013-06-07T06:47:56Z</time>
      </trkpt>
      <trkpt lat="42.69185" lon="-0.03485">
        <ele>2757</ele>
        <time>2013-06-07T06:48:04Z</time>
      </trkpt>
      <trkpt lat="42.69181" lon="-0.03479">
        <ele>2759</ele>
        <time>2013-06-07T06:48:12Z</time>
      </trkpt>
      <trkpt lat="42.69177" lon="-0.03474">
        <ele>2760</ele>
        <time>2013-06-07T06:48:21Z</time>
      </trkpt>
      <trkpt lat="42.69172" lon="-0.0347">
        <ele>2761</ele>
        <time>2013-06-07T06:48:29Z</time>
      </trkpt>
      <trkpt lat="42.69169" lon="-0.03463">
        <ele>2762</ele>
        <time>2013-06-07T06:48:38Z</time>
      </trkpt>
      <trkpt lat="42.69166" lon="-0.03455">
        <ele>2764</ele>
        <time>2013-06-07T06:48:47Z</time>
      </trkpt>
      <trkpt lat="42.69166" lon="-0.03449">
        <ele>2764</ele>
        <time>2013-06-07T06:48:56Z</time>
      </trkpt>
      <trkpt lat="42.69168" lon="-0.03454">
        <ele>2764</ele>
        <time>2013-06-07T06:49:02Z</time>
      </trkpt>
      <trkpt lat="42.69169" lon="-0.03454">
        <ele>2765</ele>
        <time>2013-06-07T06:49:15Z</time>
      </trkpt>
      <trkpt lat="42.69168" lon="-0.03456">
        <ele>2765</ele>
        <time>2013-06-07T06:49:32Z</time>
      </trkpt>
      <trkpt lat="42.69167" lon="-0.03455">
        <ele>2765</ele>
        <time>2013-06-07T06:49:44Z</time>
      </trkpt>
      <trkpt lat="42.69168" lon="-0.03458">
        <ele>2765</ele>
        <time>2013-06-07T06:49:49Z</time>
      </trkpt>
      <trkpt lat="42.69167" lon="-0.03463">
        <ele>2766</ele>
        <time>2013-06-07T06:49:56Z</time>
      </trkpt>
      <trkpt lat="42.69166" lon="-0.0347">
        <ele>2768</ele>
        <time>2013-06-07T06:50:03Z</time>
      </trkpt>
      <trkpt lat="42.69165" lon="-0.03479">
        <ele>2769</ele>
        <time>2013-06-07T06:50:11Z</time>
      </trkpt>
      <trkpt lat="42.69165" lon="-0.03488">
        <ele>2771</ele>
        <time>2013-06-07T06:50:20Z</time>
      </trkpt>
      <trkpt lat="42.69165" lon="-0.0349">
        <ele>2771</ele>
        <time>2013-06-07T06:50:21Z</time>
      </trkpt>
      <trkpt lat="42.69164" lon="-0.03498">
        <ele>2772</ele>
        <time>2013-06-07T06:50:28Z</time>
      </trkpt>
      <trkpt lat="42.69165" lon="-0.03494">
        <ele>2772</ele>
        <time>2013-06-07T06:50:31Z</time>
      </trkpt>
      <trkpt lat="42.69163" lon="-0.03491">
        <ele>2772</ele>
        <time>2013-06-07T06:50:37Z</time>
      </trkpt>
      <trkpt lat="42.6916" lon="-0.03488">
        <ele>2774</ele>
        <time>2013-06-07T06:50:44Z</time>
      </trkpt>
      <trkpt lat="42.69157" lon="-0.03483">
        <ele>2774</ele>
        <time>2013-06-07T06:50:51Z</time>
      </trkpt>
    </trkseg>
  </trk>
</gpx>